<?xml version="1.0" encoding="UTF-8" standalone="no" ?>
<gpx xmlns="http://www.topografix.com/GPX/1/1" xmlns:xsi="http://www.w3.org/2001/XMLSchema-instance" xsi:schemaLocation="http://www.topografix.com/GPX/1/1 http://www.topografix.com/GPX/1/1/gpx.xsd" version="1.1" creator="VisuGPX - https://www.visugpx.com">
  <metadata>
    <name>Tracé actuel: 01 JUIL 2022 14:14</name>
  </metadata>
  <trk>
    <name><![CDATA[Tracé actuel: 01 JUIL 2022 14:14]]></name>
    <trkseg>
      <trkpt lat="45.67014" lon="2.98899">
        <ele>783.61</ele>
        <time>2022-07-01T12:14:57Z</time>
      </trkpt>
      <trkpt lat="45.67014" lon="2.98898">
        <ele>784.09</ele>
        <time>2022-07-01T12:15:28Z</time>
      </trkpt>
      <trkpt lat="45.67014" lon="2.98899">
        <ele>785.53</ele>
        <time>2022-07-01T12:16:03Z</time>
      </trkpt>
      <trkpt lat="45.67013" lon="2.98899">
        <ele>788.9</ele>
        <time>2022-07-01T12:17:30Z</time>
      </trkpt>
      <trkpt lat="45.67013" lon="2.98899">
        <ele>788.42</ele>
        <time>2022-07-01T12:17:36Z</time>
      </trkpt>
      <trkpt lat="45.67012" lon="2.98899">
        <ele>788.9</ele>
        <time>2022-07-01T12:17:38Z</time>
      </trkpt>
      <trkpt lat="45.67011" lon="2.98895">
        <ele>788.9</ele>
        <time>2022-07-01T12:17:41Z</time>
      </trkpt>
      <trkpt lat="45.67012" lon="2.98877">
        <ele>788.42</ele>
        <time>2022-07-01T12:17:48Z</time>
      </trkpt>
      <trkpt lat="45.67017" lon="2.9886">
        <ele>788.42</ele>
        <time>2022-07-01T12:18:03Z</time>
      </trkpt>
      <trkpt lat="45.67017" lon="2.9886">
        <ele>788.9</ele>
        <time>2022-07-01T12:18:23Z</time>
      </trkpt>
      <trkpt lat="45.67017" lon="2.9886">
        <ele>789.86</ele>
        <time>2022-07-01T12:18:38Z</time>
      </trkpt>
      <trkpt lat="45.67017" lon="2.98858">
        <ele>789.86</ele>
        <time>2022-07-01T12:18:40Z</time>
      </trkpt>
      <trkpt lat="45.67016" lon="2.98831">
        <ele>790.82</ele>
        <time>2022-07-01T12:18:49Z</time>
      </trkpt>
      <trkpt lat="45.67017" lon="2.98821">
        <ele>790.82</ele>
        <time>2022-07-01T12:18:52Z</time>
      </trkpt>
      <trkpt lat="45.67019" lon="2.98772">
        <ele>792.74</ele>
        <time>2022-07-01T12:19:07Z</time>
      </trkpt>
      <trkpt lat="45.67014" lon="2.98744">
        <ele>796.11</ele>
        <time>2022-07-01T12:19:17Z</time>
      </trkpt>
      <trkpt lat="45.67007" lon="2.98714">
        <ele>799.47</ele>
        <time>2022-07-01T12:19:28Z</time>
      </trkpt>
      <trkpt lat="45.67001" lon="2.98699">
        <ele>801.4</ele>
        <time>2022-07-01T12:19:34Z</time>
      </trkpt>
      <trkpt lat="45.67" lon="2.98687">
        <ele>802.36</ele>
        <time>2022-07-01T12:19:38Z</time>
      </trkpt>
      <trkpt lat="45.66999" lon="2.98681">
        <ele>803.32</ele>
        <time>2022-07-01T12:19:40Z</time>
      </trkpt>
      <trkpt lat="45.67" lon="2.9866">
        <ele>804.76</ele>
        <time>2022-07-01T12:19:48Z</time>
      </trkpt>
      <trkpt lat="45.66999" lon="2.98616">
        <ele>807.64</ele>
        <time>2022-07-01T12:20:00Z</time>
      </trkpt>
      <trkpt lat="45.66992" lon="2.98567">
        <ele>811.01</ele>
        <time>2022-07-01T12:20:14Z</time>
      </trkpt>
      <trkpt lat="45.66971" lon="2.98518">
        <ele>812.45</ele>
        <time>2022-07-01T12:20:31Z</time>
      </trkpt>
      <trkpt lat="45.66942" lon="2.98477">
        <ele>814.85</ele>
        <time>2022-07-01T12:20:48Z</time>
      </trkpt>
      <trkpt lat="45.66927" lon="2.98442">
        <ele>816.3</ele>
        <time>2022-07-01T12:21:01Z</time>
      </trkpt>
      <trkpt lat="45.66917" lon="2.98402">
        <ele>817.74</ele>
        <time>2022-07-01T12:21:13Z</time>
      </trkpt>
      <trkpt lat="45.66908" lon="2.98359">
        <ele>819.18</ele>
        <time>2022-07-01T12:21:26Z</time>
      </trkpt>
      <trkpt lat="45.66907" lon="2.98356">
        <ele>819.66</ele>
        <time>2022-07-01T12:21:27Z</time>
      </trkpt>
      <trkpt lat="45.66905" lon="2.98331">
        <ele>822.06</ele>
        <time>2022-07-01T12:21:35Z</time>
      </trkpt>
      <trkpt lat="45.66905" lon="2.98324">
        <ele>822.06</ele>
        <time>2022-07-01T12:21:37Z</time>
      </trkpt>
      <trkpt lat="45.66914" lon="2.98296">
        <ele>823.03</ele>
        <time>2022-07-01T12:21:45Z</time>
      </trkpt>
      <trkpt lat="45.66941" lon="2.98253">
        <ele>824.95</ele>
        <time>2022-07-01T12:22:00Z</time>
      </trkpt>
      <trkpt lat="45.66964" lon="2.98234">
        <ele>827.35</ele>
        <time>2022-07-01T12:22:11Z</time>
      </trkpt>
      <trkpt lat="45.66987" lon="2.98211">
        <ele>830.24</ele>
        <time>2022-07-01T12:22:22Z</time>
      </trkpt>
      <trkpt lat="45.67005" lon="2.98183">
        <ele>833.12</ele>
        <time>2022-07-01T12:22:35Z</time>
      </trkpt>
      <trkpt lat="45.67021" lon="2.98153">
        <ele>836</ele>
        <time>2022-07-01T12:22:47Z</time>
      </trkpt>
      <trkpt lat="45.67033" lon="2.98116">
        <ele>837.93</ele>
        <time>2022-07-01T12:23:00Z</time>
      </trkpt>
      <trkpt lat="45.67072" lon="2.98112">
        <ele>838.41</ele>
        <time>2022-07-01T12:23:13Z</time>
      </trkpt>
      <trkpt lat="45.67103" lon="2.98114">
        <ele>841.29</ele>
        <time>2022-07-01T12:23:23Z</time>
      </trkpt>
      <trkpt lat="45.67136" lon="2.98108">
        <ele>841.77</ele>
        <time>2022-07-01T12:23:35Z</time>
      </trkpt>
      <trkpt lat="45.67163" lon="2.9813">
        <ele>843.21</ele>
        <time>2022-07-01T12:23:45Z</time>
      </trkpt>
      <trkpt lat="45.67188" lon="2.98144">
        <ele>846.1</ele>
        <time>2022-07-01T12:23:57Z</time>
      </trkpt>
      <trkpt lat="45.67218" lon="2.98155">
        <ele>847.06</ele>
        <time>2022-07-01T12:24:10Z</time>
      </trkpt>
      <trkpt lat="45.67249" lon="2.9816">
        <ele>848.5</ele>
        <time>2022-07-01T12:24:23Z</time>
      </trkpt>
      <trkpt lat="45.67281" lon="2.98162">
        <ele>849.94</ele>
        <time>2022-07-01T12:24:35Z</time>
      </trkpt>
      <trkpt lat="45.67314" lon="2.98163">
        <ele>851.87</ele>
        <time>2022-07-01T12:24:48Z</time>
      </trkpt>
      <trkpt lat="45.67354" lon="2.98155">
        <ele>852.83</ele>
        <time>2022-07-01T12:25:02Z</time>
      </trkpt>
      <trkpt lat="45.67401" lon="2.98151">
        <ele>852.83</ele>
        <time>2022-07-01T12:25:15Z</time>
      </trkpt>
      <trkpt lat="45.6745" lon="2.98171">
        <ele>852.35</ele>
        <time>2022-07-01T12:25:29Z</time>
      </trkpt>
      <trkpt lat="45.67504" lon="2.98183">
        <ele>849.94</ele>
        <time>2022-07-01T12:25:44Z</time>
      </trkpt>
      <trkpt lat="45.67528" lon="2.98194">
        <ele>846.58</ele>
        <time>2022-07-01T12:25:50Z</time>
      </trkpt>
      <trkpt lat="45.67552" lon="2.98202">
        <ele>844.18</ele>
        <time>2022-07-01T12:25:55Z</time>
      </trkpt>
      <trkpt lat="45.67575" lon="2.98206">
        <ele>842.25</ele>
        <time>2022-07-01T12:26:00Z</time>
      </trkpt>
      <trkpt lat="45.67635" lon="2.98206">
        <ele>842.25</ele>
        <time>2022-07-01T12:26:13Z</time>
      </trkpt>
      <trkpt lat="45.67653" lon="2.98198">
        <ele>843.21</ele>
        <time>2022-07-01T12:26:25Z</time>
      </trkpt>
      <trkpt lat="45.67665" lon="2.9819">
        <ele>843.69</ele>
        <time>2022-07-01T12:26:46Z</time>
      </trkpt>
      <trkpt lat="45.67668" lon="2.98189">
        <ele>844.66</ele>
        <time>2022-07-01T12:26:49Z</time>
      </trkpt>
      <trkpt lat="45.67673" lon="2.98184">
        <ele>845.14</ele>
        <time>2022-07-01T12:26:53Z</time>
      </trkpt>
      <trkpt lat="45.67689" lon="2.98177">
        <ele>845.14</ele>
        <time>2022-07-01T12:27:00Z</time>
      </trkpt>
      <trkpt lat="45.67729" lon="2.98163">
        <ele>844.18</ele>
        <time>2022-07-01T12:27:12Z</time>
      </trkpt>
      <trkpt lat="45.67768" lon="2.98149">
        <ele>843.21</ele>
        <time>2022-07-01T12:27:23Z</time>
      </trkpt>
      <trkpt lat="45.67803" lon="2.98135">
        <ele>843.69</ele>
        <time>2022-07-01T12:27:32Z</time>
      </trkpt>
      <trkpt lat="45.67842" lon="2.98121">
        <ele>845.62</ele>
        <time>2022-07-01T12:27:44Z</time>
      </trkpt>
      <trkpt lat="45.67883" lon="2.9811">
        <ele>846.58</ele>
        <time>2022-07-01T12:27:56Z</time>
      </trkpt>
      <trkpt lat="45.67921" lon="2.98112">
        <ele>849.46</ele>
        <time>2022-07-01T12:28:05Z</time>
      </trkpt>
      <trkpt lat="45.6795" lon="2.98097">
        <ele>852.35</ele>
        <time>2022-07-01T12:28:18Z</time>
      </trkpt>
      <trkpt lat="45.6797" lon="2.98073">
        <ele>853.31</ele>
        <time>2022-07-01T12:28:29Z</time>
      </trkpt>
      <trkpt lat="45.67991" lon="2.98047">
        <ele>852.83</ele>
        <time>2022-07-01T12:28:37Z</time>
      </trkpt>
      <trkpt lat="45.67993" lon="2.98041">
        <ele>853.31</ele>
        <time>2022-07-01T12:28:39Z</time>
      </trkpt>
      <trkpt lat="45.68012" lon="2.98014">
        <ele>856.67</ele>
        <time>2022-07-01T12:28:50Z</time>
      </trkpt>
      <trkpt lat="45.68026" lon="2.97992">
        <ele>860.04</ele>
        <time>2022-07-01T12:29:02Z</time>
      </trkpt>
      <trkpt lat="45.68032" lon="2.97982">
        <ele>860.52</ele>
        <time>2022-07-01T12:29:06Z</time>
      </trkpt>
      <trkpt lat="45.68036" lon="2.97972">
        <ele>861</ele>
        <time>2022-07-01T12:29:10Z</time>
      </trkpt>
      <trkpt lat="45.6806" lon="2.9794">
        <ele>863.4</ele>
        <time>2022-07-01T12:29:23Z</time>
      </trkpt>
      <trkpt lat="45.6808" lon="2.9792">
        <ele>864.36</ele>
        <time>2022-07-01T12:29:32Z</time>
      </trkpt>
      <trkpt lat="45.68086" lon="2.97912">
        <ele>865.8</ele>
        <time>2022-07-01T12:29:35Z</time>
      </trkpt>
      <trkpt lat="45.6809" lon="2.97891">
        <ele>867.25</ele>
        <time>2022-07-01T12:29:42Z</time>
      </trkpt>
      <trkpt lat="45.68101" lon="2.97864">
        <ele>870.61</ele>
        <time>2022-07-01T12:29:53Z</time>
      </trkpt>
      <trkpt lat="45.68103" lon="2.97858">
        <ele>870.13</ele>
        <time>2022-07-01T12:29:55Z</time>
      </trkpt>
      <trkpt lat="45.68106" lon="2.97831">
        <ele>870.61</ele>
        <time>2022-07-01T12:30:04Z</time>
      </trkpt>
      <trkpt lat="45.68091" lon="2.97776">
        <ele>871.09</ele>
        <time>2022-07-01T12:30:19Z</time>
      </trkpt>
      <trkpt lat="45.6808" lon="2.9774">
        <ele>873.01</ele>
        <time>2022-07-01T12:30:30Z</time>
      </trkpt>
      <trkpt lat="45.68065" lon="2.97708">
        <ele>874.94</ele>
        <time>2022-07-01T12:30:42Z</time>
      </trkpt>
      <trkpt lat="45.68043" lon="2.97668">
        <ele>876.86</ele>
        <time>2022-07-01T12:30:55Z</time>
      </trkpt>
      <trkpt lat="45.68014" lon="2.97637">
        <ele>878.78</ele>
        <time>2022-07-01T12:31:08Z</time>
      </trkpt>
      <trkpt lat="45.67978" lon="2.97605">
        <ele>880.71</ele>
        <time>2022-07-01T12:31:24Z</time>
      </trkpt>
      <trkpt lat="45.67943" lon="2.97577">
        <ele>881.67</ele>
        <time>2022-07-01T12:31:38Z</time>
      </trkpt>
      <trkpt lat="45.67905" lon="2.97537">
        <ele>882.15</ele>
        <time>2022-07-01T12:31:52Z</time>
      </trkpt>
      <trkpt lat="45.67873" lon="2.97476">
        <ele>883.11</ele>
        <time>2022-07-01T12:32:07Z</time>
      </trkpt>
      <trkpt lat="45.67827" lon="2.97393">
        <ele>884.55</ele>
        <time>2022-07-01T12:32:27Z</time>
      </trkpt>
      <trkpt lat="45.67796" lon="2.97327">
        <ele>885.51</ele>
        <time>2022-07-01T12:32:43Z</time>
      </trkpt>
      <trkpt lat="45.67767" lon="2.97263">
        <ele>885.03</ele>
        <time>2022-07-01T12:32:57Z</time>
      </trkpt>
      <trkpt lat="45.67732" lon="2.9722">
        <ele>887.91</ele>
        <time>2022-07-01T12:33:10Z</time>
      </trkpt>
      <trkpt lat="45.6769" lon="2.97171">
        <ele>889.84</ele>
        <time>2022-07-01T12:33:27Z</time>
      </trkpt>
      <trkpt lat="45.67645" lon="2.97144">
        <ele>892.24</ele>
        <time>2022-07-01T12:33:42Z</time>
      </trkpt>
      <trkpt lat="45.67618" lon="2.97126">
        <ele>894.64</ele>
        <time>2022-07-01T12:33:53Z</time>
      </trkpt>
      <trkpt lat="45.67607" lon="2.97117">
        <ele>896.57</ele>
        <time>2022-07-01T12:33:59Z</time>
      </trkpt>
      <trkpt lat="45.67602" lon="2.9711">
        <ele>897.05</ele>
        <time>2022-07-01T12:34:02Z</time>
      </trkpt>
      <trkpt lat="45.67596" lon="2.971">
        <ele>898.49</ele>
        <time>2022-07-01T12:34:06Z</time>
      </trkpt>
      <trkpt lat="45.67585" lon="2.97084">
        <ele>900.41</ele>
        <time>2022-07-01T12:34:14Z</time>
      </trkpt>
      <trkpt lat="45.67571" lon="2.97062">
        <ele>903.78</ele>
        <time>2022-07-01T12:34:28Z</time>
      </trkpt>
      <trkpt lat="45.67567" lon="2.9705">
        <ele>903.78</ele>
        <time>2022-07-01T12:34:34Z</time>
      </trkpt>
      <trkpt lat="45.67563" lon="2.97045">
        <ele>904.26</ele>
        <time>2022-07-01T12:34:38Z</time>
      </trkpt>
      <trkpt lat="45.67549" lon="2.97018">
        <ele>906.18</ele>
        <time>2022-07-01T12:34:55Z</time>
      </trkpt>
      <trkpt lat="45.67544" lon="2.9701">
        <ele>906.66</ele>
        <time>2022-07-01T12:35:01Z</time>
      </trkpt>
      <trkpt lat="45.67529" lon="2.96972">
        <ele>909.06</ele>
        <time>2022-07-01T12:35:15Z</time>
      </trkpt>
      <trkpt lat="45.67512" lon="2.9693">
        <ele>912.43</ele>
        <time>2022-07-01T12:35:28Z</time>
      </trkpt>
      <trkpt lat="45.67489" lon="2.9688">
        <ele>914.83</ele>
        <time>2022-07-01T12:35:43Z</time>
      </trkpt>
      <trkpt lat="45.6747" lon="2.96836">
        <ele>917.24</ele>
        <time>2022-07-01T12:35:56Z</time>
      </trkpt>
      <trkpt lat="45.67448" lon="2.96791">
        <ele>918.68</ele>
        <time>2022-07-01T12:36:09Z</time>
      </trkpt>
      <trkpt lat="45.67415" lon="2.96757">
        <ele>921.08</ele>
        <time>2022-07-01T12:36:24Z</time>
      </trkpt>
      <trkpt lat="45.67378" lon="2.96744">
        <ele>920.6</ele>
        <time>2022-07-01T12:36:37Z</time>
      </trkpt>
      <trkpt lat="45.67328" lon="2.96748">
        <ele>919.64</ele>
        <time>2022-07-01T12:36:50Z</time>
      </trkpt>
      <trkpt lat="45.6732" lon="2.9675">
        <ele>919.64</ele>
        <time>2022-07-01T12:36:52Z</time>
      </trkpt>
      <trkpt lat="45.67275" lon="2.96764">
        <ele>919.64</ele>
        <time>2022-07-01T12:37:05Z</time>
      </trkpt>
      <trkpt lat="45.67222" lon="2.96776">
        <ele>918.2</ele>
        <time>2022-07-01T12:37:19Z</time>
      </trkpt>
      <trkpt lat="45.67194" lon="2.9678">
        <ele>917.72</ele>
        <time>2022-07-01T12:37:25Z</time>
      </trkpt>
      <trkpt lat="45.6714" lon="2.96792">
        <ele>918.2</ele>
        <time>2022-07-01T12:37:39Z</time>
      </trkpt>
      <trkpt lat="45.67087" lon="2.96795">
        <ele>920.6</ele>
        <time>2022-07-01T12:37:54Z</time>
      </trkpt>
      <trkpt lat="45.67064" lon="2.96768">
        <ele>920.6</ele>
        <time>2022-07-01T12:38:05Z</time>
      </trkpt>
      <trkpt lat="45.67068" lon="2.96754">
        <ele>922.52</ele>
        <time>2022-07-01T12:38:09Z</time>
      </trkpt>
      <trkpt lat="45.67074" lon="2.96709">
        <ele>924.45</ele>
        <time>2022-07-01T12:38:21Z</time>
      </trkpt>
      <trkpt lat="45.67069" lon="2.9666">
        <ele>926.37</ele>
        <time>2022-07-01T12:38:34Z</time>
      </trkpt>
      <trkpt lat="45.67063" lon="2.96607">
        <ele>929.25</ele>
        <time>2022-07-01T12:38:49Z</time>
      </trkpt>
      <trkpt lat="45.67057" lon="2.9657">
        <ele>932.62</ele>
        <time>2022-07-01T12:39:01Z</time>
      </trkpt>
      <trkpt lat="45.67046" lon="2.96533">
        <ele>934.54</ele>
        <time>2022-07-01T12:39:14Z</time>
      </trkpt>
      <trkpt lat="45.67037" lon="2.96505">
        <ele>937.42</ele>
        <time>2022-07-01T12:39:26Z</time>
      </trkpt>
      <trkpt lat="45.67028" lon="2.96478">
        <ele>940.31</ele>
        <time>2022-07-01T12:39:37Z</time>
      </trkpt>
      <trkpt lat="45.67018" lon="2.96446">
        <ele>942.23</ele>
        <time>2022-07-01T12:39:48Z</time>
      </trkpt>
      <trkpt lat="45.67014" lon="2.96429">
        <ele>943.19</ele>
        <time>2022-07-01T12:39:53Z</time>
      </trkpt>
      <trkpt lat="45.67018" lon="2.9641">
        <ele>943.67</ele>
        <time>2022-07-01T12:40:00Z</time>
      </trkpt>
      <trkpt lat="45.67017" lon="2.96397">
        <ele>944.63</ele>
        <time>2022-07-01T12:40:04Z</time>
      </trkpt>
      <trkpt lat="45.67015" lon="2.9639">
        <ele>945.11</ele>
        <time>2022-07-01T12:40:18Z</time>
      </trkpt>
      <trkpt lat="45.67016" lon="2.96387">
        <ele>945.11</ele>
        <time>2022-07-01T12:40:40Z</time>
      </trkpt>
      <trkpt lat="45.67017" lon="2.9634">
        <ele>947.04</ele>
        <time>2022-07-01T12:40:52Z</time>
      </trkpt>
      <trkpt lat="45.67024" lon="2.96296">
        <ele>947.52</ele>
        <time>2022-07-01T12:41:04Z</time>
      </trkpt>
      <trkpt lat="45.67034" lon="2.96268">
        <ele>945.11</ele>
        <time>2022-07-01T12:41:11Z</time>
      </trkpt>
      <trkpt lat="45.67024" lon="2.96248">
        <ele>943.19</ele>
        <time>2022-07-01T12:41:16Z</time>
      </trkpt>
      <trkpt lat="45.67005" lon="2.9624">
        <ele>941.75</ele>
        <time>2022-07-01T12:41:21Z</time>
      </trkpt>
      <trkpt lat="45.66992" lon="2.96238">
        <ele>939.83</ele>
        <time>2022-07-01T12:41:24Z</time>
      </trkpt>
      <trkpt lat="45.66979" lon="2.96232">
        <ele>937.9</ele>
        <time>2022-07-01T12:41:27Z</time>
      </trkpt>
      <trkpt lat="45.66925" lon="2.96207">
        <ele>934.54</ele>
        <time>2022-07-01T12:41:39Z</time>
      </trkpt>
      <trkpt lat="45.66921" lon="2.96206">
        <ele>934.54</ele>
        <time>2022-07-01T12:41:40Z</time>
      </trkpt>
      <trkpt lat="45.66899" lon="2.96195">
        <ele>935.02</ele>
        <time>2022-07-01T12:41:50Z</time>
      </trkpt>
      <trkpt lat="45.66898" lon="2.96191">
        <ele>935.5</ele>
        <time>2022-07-01T12:41:52Z</time>
      </trkpt>
      <trkpt lat="45.66904" lon="2.96174">
        <ele>935.98</ele>
        <time>2022-07-01T12:42:00Z</time>
      </trkpt>
      <trkpt lat="45.66924" lon="2.96139">
        <ele>937.42</ele>
        <time>2022-07-01T12:42:15Z</time>
      </trkpt>
      <trkpt lat="45.66948" lon="2.96096">
        <ele>940.31</ele>
        <time>2022-07-01T12:42:28Z</time>
      </trkpt>
      <trkpt lat="45.66974" lon="2.9605">
        <ele>942.71</ele>
        <time>2022-07-01T12:42:42Z</time>
      </trkpt>
      <trkpt lat="45.66997" lon="2.96001">
        <ele>944.15</ele>
        <time>2022-07-01T12:42:55Z</time>
      </trkpt>
      <trkpt lat="45.6703" lon="2.95933">
        <ele>946.07</ele>
        <time>2022-07-01T12:43:12Z</time>
      </trkpt>
      <trkpt lat="45.67065" lon="2.95868">
        <ele>948.48</ele>
        <time>2022-07-01T12:43:30Z</time>
      </trkpt>
      <trkpt lat="45.67089" lon="2.95812">
        <ele>949.92</ele>
        <time>2022-07-01T12:43:45Z</time>
      </trkpt>
      <trkpt lat="45.67106" lon="2.95751">
        <ele>951.36</ele>
        <time>2022-07-01T12:43:59Z</time>
      </trkpt>
      <trkpt lat="45.67127" lon="2.95693">
        <ele>954.25</ele>
        <time>2022-07-01T12:44:14Z</time>
      </trkpt>
      <trkpt lat="45.67153" lon="2.95651">
        <ele>956.65</ele>
        <time>2022-07-01T12:44:27Z</time>
      </trkpt>
      <trkpt lat="45.67184" lon="2.95595">
        <ele>959.05</ele>
        <time>2022-07-01T12:44:43Z</time>
      </trkpt>
      <trkpt lat="45.67213" lon="2.95545">
        <ele>960.01</ele>
        <time>2022-07-01T12:44:57Z</time>
      </trkpt>
      <trkpt lat="45.67243" lon="2.9548">
        <ele>960.49</ele>
        <time>2022-07-01T12:45:12Z</time>
      </trkpt>
      <trkpt lat="45.67273" lon="2.95406">
        <ele>960.98</ele>
        <time>2022-07-01T12:45:29Z</time>
      </trkpt>
      <trkpt lat="45.67303" lon="2.95342">
        <ele>960.49</ele>
        <time>2022-07-01T12:45:44Z</time>
      </trkpt>
      <trkpt lat="45.67306" lon="2.95328">
        <ele>960.01</ele>
        <time>2022-07-01T12:45:47Z</time>
      </trkpt>
      <trkpt lat="45.67301" lon="2.95315">
        <ele>960.49</ele>
        <time>2022-07-01T12:45:51Z</time>
      </trkpt>
      <trkpt lat="45.6726" lon="2.95282">
        <ele>962.9</ele>
        <time>2022-07-01T12:46:07Z</time>
      </trkpt>
      <trkpt lat="45.67226" lon="2.9526">
        <ele>965.3</ele>
        <time>2022-07-01T12:46:22Z</time>
      </trkpt>
      <trkpt lat="45.67194" lon="2.95234">
        <ele>967.7</ele>
        <time>2022-07-01T12:46:36Z</time>
      </trkpt>
      <trkpt lat="45.67163" lon="2.95209">
        <ele>970.59</ele>
        <time>2022-07-01T12:46:50Z</time>
      </trkpt>
      <trkpt lat="45.67135" lon="2.95188">
        <ele>972.03</ele>
        <time>2022-07-01T12:47:03Z</time>
      </trkpt>
      <trkpt lat="45.67111" lon="2.95169">
        <ele>974.43</ele>
        <time>2022-07-01T12:47:16Z</time>
      </trkpt>
      <trkpt lat="45.6709" lon="2.95153">
        <ele>976.36</ele>
        <time>2022-07-01T12:47:28Z</time>
      </trkpt>
      <trkpt lat="45.67071" lon="2.95131">
        <ele>979.72</ele>
        <time>2022-07-01T12:47:41Z</time>
      </trkpt>
      <trkpt lat="45.67042" lon="2.95116">
        <ele>982.12</ele>
        <time>2022-07-01T12:47:56Z</time>
      </trkpt>
      <trkpt lat="45.67012" lon="2.95132">
        <ele>984.53</ele>
        <time>2022-07-01T12:48:11Z</time>
      </trkpt>
      <trkpt lat="45.66981" lon="2.95166">
        <ele>987.41</ele>
        <time>2022-07-01T12:48:28Z</time>
      </trkpt>
      <trkpt lat="45.66949" lon="2.952">
        <ele>990.3</ele>
        <time>2022-07-01T12:48:45Z</time>
      </trkpt>
      <trkpt lat="45.66923" lon="2.9523">
        <ele>993.18</ele>
        <time>2022-07-01T12:49:00Z</time>
      </trkpt>
      <trkpt lat="45.66898" lon="2.95253">
        <ele>996.06</ele>
        <time>2022-07-01T12:49:15Z</time>
      </trkpt>
      <trkpt lat="45.66873" lon="2.95276">
        <ele>998.95</ele>
        <time>2022-07-01T12:49:30Z</time>
      </trkpt>
      <trkpt lat="45.66861" lon="2.95284">
        <ele>999.91</ele>
        <time>2022-07-01T12:49:38Z</time>
      </trkpt>
      <trkpt lat="45.66853" lon="2.95291">
        <ele>1001.35</ele>
        <time>2022-07-01T12:49:44Z</time>
      </trkpt>
      <trkpt lat="45.66832" lon="2.95303">
        <ele>1003.75</ele>
        <time>2022-07-01T12:49:58Z</time>
      </trkpt>
      <trkpt lat="45.66816" lon="2.95314">
        <ele>1006.64</ele>
        <time>2022-07-01T12:50:09Z</time>
      </trkpt>
      <trkpt lat="45.66791" lon="2.9533">
        <ele>1009.04</ele>
        <time>2022-07-01T12:50:24Z</time>
      </trkpt>
      <trkpt lat="45.66769" lon="2.95341">
        <ele>1012.41</ele>
        <time>2022-07-01T12:50:39Z</time>
      </trkpt>
      <trkpt lat="45.66765" lon="2.95342">
        <ele>1012.89</ele>
        <time>2022-07-01T12:50:41Z</time>
      </trkpt>
      <trkpt lat="45.6674" lon="2.95344">
        <ele>1014.81</ele>
        <time>2022-07-01T12:50:54Z</time>
      </trkpt>
      <trkpt lat="45.66711" lon="2.95337">
        <ele>1016.73</ele>
        <time>2022-07-01T12:51:08Z</time>
      </trkpt>
      <trkpt lat="45.66683" lon="2.95331">
        <ele>1019.13</ele>
        <time>2022-07-01T12:51:22Z</time>
      </trkpt>
      <trkpt lat="45.66648" lon="2.95315">
        <ele>1020.58</ele>
        <time>2022-07-01T12:51:38Z</time>
      </trkpt>
      <trkpt lat="45.66628" lon="2.953">
        <ele>1021.54</ele>
        <time>2022-07-01T12:51:51Z</time>
      </trkpt>
      <trkpt lat="45.66593" lon="2.95278">
        <ele>1022.5</ele>
        <time>2022-07-01T12:52:07Z</time>
      </trkpt>
      <trkpt lat="45.66561" lon="2.95247">
        <ele>1022.98</ele>
        <time>2022-07-01T12:52:22Z</time>
      </trkpt>
      <trkpt lat="45.66525" lon="2.95211">
        <ele>1023.94</ele>
        <time>2022-07-01T12:52:37Z</time>
      </trkpt>
      <trkpt lat="45.66481" lon="2.95166">
        <ele>1023.46</ele>
        <time>2022-07-01T12:52:54Z</time>
      </trkpt>
      <trkpt lat="45.66433" lon="2.95097">
        <ele>1020.58</ele>
        <time>2022-07-01T12:53:10Z</time>
      </trkpt>
      <trkpt lat="45.66391" lon="2.95049">
        <ele>1017.21</ele>
        <time>2022-07-01T12:53:22Z</time>
      </trkpt>
      <trkpt lat="45.66337" lon="2.94991">
        <ele>1015.77</ele>
        <time>2022-07-01T12:53:39Z</time>
      </trkpt>
      <trkpt lat="45.66309" lon="2.94961">
        <ele>1015.77</ele>
        <time>2022-07-01T12:53:51Z</time>
      </trkpt>
      <trkpt lat="45.66299" lon="2.94937">
        <ele>1015.77</ele>
        <time>2022-07-01T12:54:00Z</time>
      </trkpt>
      <trkpt lat="45.66303" lon="2.94927">
        <ele>1016.73</ele>
        <time>2022-07-01T12:54:05Z</time>
      </trkpt>
      <trkpt lat="45.66329" lon="2.94902">
        <ele>1016.73</ele>
        <time>2022-07-01T12:54:17Z</time>
      </trkpt>
      <trkpt lat="45.66354" lon="2.94861">
        <ele>1017.69</ele>
        <time>2022-07-01T12:54:28Z</time>
      </trkpt>
      <trkpt lat="45.66379" lon="2.94818">
        <ele>1019.62</ele>
        <time>2022-07-01T12:54:41Z</time>
      </trkpt>
      <trkpt lat="45.6638" lon="2.94811">
        <ele>1019.62</ele>
        <time>2022-07-01T12:54:43Z</time>
      </trkpt>
      <trkpt lat="45.66367" lon="2.94772">
        <ele>1021.06</ele>
        <time>2022-07-01T12:54:56Z</time>
      </trkpt>
      <trkpt lat="45.6635" lon="2.94733">
        <ele>1021.06</ele>
        <time>2022-07-01T12:55:08Z</time>
      </trkpt>
      <trkpt lat="45.66326" lon="2.94688">
        <ele>1022.5</ele>
        <time>2022-07-01T12:55:20Z</time>
      </trkpt>
      <trkpt lat="45.663" lon="2.94639">
        <ele>1024.42</ele>
        <time>2022-07-01T12:55:35Z</time>
      </trkpt>
      <trkpt lat="45.66282" lon="2.94612">
        <ele>1023.94</ele>
        <time>2022-07-01T12:55:47Z</time>
      </trkpt>
      <trkpt lat="45.66267" lon="2.94579">
        <ele>1024.42</ele>
        <time>2022-07-01T12:55:58Z</time>
      </trkpt>
      <trkpt lat="45.66243" lon="2.9453">
        <ele>1023.46</ele>
        <time>2022-07-01T12:56:12Z</time>
      </trkpt>
      <trkpt lat="45.66223" lon="2.94487">
        <ele>1023.94</ele>
        <time>2022-07-01T12:56:25Z</time>
      </trkpt>
      <trkpt lat="45.66217" lon="2.94476">
        <ele>1023.94</ele>
        <time>2022-07-01T12:56:35Z</time>
      </trkpt>
      <trkpt lat="45.66217" lon="2.94476">
        <ele>1023.46</ele>
        <time>2022-07-01T12:57:04Z</time>
      </trkpt>
      <trkpt lat="45.66206" lon="2.94454">
        <ele>1025.38</ele>
        <time>2022-07-01T12:59:24Z</time>
      </trkpt>
      <trkpt lat="45.66184" lon="2.9441">
        <ele>1024.9</ele>
        <time>2022-07-01T12:59:37Z</time>
      </trkpt>
      <trkpt lat="45.66156" lon="2.94338">
        <ele>1021.54</ele>
        <time>2022-07-01T12:59:50Z</time>
      </trkpt>
      <trkpt lat="45.66154" lon="2.9433">
        <ele>1021.54</ele>
        <time>2022-07-01T12:59:51Z</time>
      </trkpt>
      <trkpt lat="45.66138" lon="2.94272">
        <ele>1021.06</ele>
        <time>2022-07-01T12:59:59Z</time>
      </trkpt>
      <trkpt lat="45.66132" lon="2.94247">
        <ele>1021.06</ele>
        <time>2022-07-01T13:00:03Z</time>
      </trkpt>
      <trkpt lat="45.66127" lon="2.94235">
        <ele>1021.06</ele>
        <time>2022-07-01T13:00:05Z</time>
      </trkpt>
      <trkpt lat="45.66101" lon="2.94163">
        <ele>1021.54</ele>
        <time>2022-07-01T13:00:21Z</time>
      </trkpt>
      <trkpt lat="45.66075" lon="2.94099">
        <ele>1019.13</ele>
        <time>2022-07-01T13:00:34Z</time>
      </trkpt>
      <trkpt lat="45.66039" lon="2.94018">
        <ele>1015.29</ele>
        <time>2022-07-01T13:00:47Z</time>
      </trkpt>
      <trkpt lat="45.6602" lon="2.93974">
        <ele>1014.81</ele>
        <time>2022-07-01T13:00:54Z</time>
      </trkpt>
      <trkpt lat="45.65993" lon="2.93933">
        <ele>1013.85</ele>
        <time>2022-07-01T13:01:05Z</time>
      </trkpt>
      <trkpt lat="45.65991" lon="2.93878">
        <ele>1014.33</ele>
        <time>2022-07-01T13:01:18Z</time>
      </trkpt>
      <trkpt lat="45.65988" lon="2.93804">
        <ele>1014.81</ele>
        <time>2022-07-01T13:01:32Z</time>
      </trkpt>
      <trkpt lat="45.65989" lon="2.93724">
        <ele>1014.81</ele>
        <time>2022-07-01T13:01:46Z</time>
      </trkpt>
      <trkpt lat="45.6599" lon="2.93635">
        <ele>1015.29</ele>
        <time>2022-07-01T13:02:01Z</time>
      </trkpt>
      <trkpt lat="45.65992" lon="2.93555">
        <ele>1017.21</ele>
        <time>2022-07-01T13:02:16Z</time>
      </trkpt>
      <trkpt lat="45.65993" lon="2.93476">
        <ele>1018.17</ele>
        <time>2022-07-01T13:02:31Z</time>
      </trkpt>
      <trkpt lat="45.65995" lon="2.9338">
        <ele>1021.06</ele>
        <time>2022-07-01T13:02:50Z</time>
      </trkpt>
      <trkpt lat="45.65997" lon="2.93324">
        <ele>1023.94</ele>
        <time>2022-07-01T13:03:03Z</time>
      </trkpt>
      <trkpt lat="45.65998" lon="2.93279">
        <ele>1026.83</ele>
        <time>2022-07-01T13:03:16Z</time>
      </trkpt>
      <trkpt lat="45.65999" lon="2.93245">
        <ele>1030.19</ele>
        <time>2022-07-01T13:03:29Z</time>
      </trkpt>
      <trkpt lat="45.66" lon="2.93211">
        <ele>1033.07</ele>
        <time>2022-07-01T13:03:43Z</time>
      </trkpt>
      <trkpt lat="45.65999" lon="2.93177">
        <ele>1035.96</ele>
        <time>2022-07-01T13:03:56Z</time>
      </trkpt>
      <trkpt lat="45.66001" lon="2.93139">
        <ele>1038.84</ele>
        <time>2022-07-01T13:04:10Z</time>
      </trkpt>
      <trkpt lat="45.66002" lon="2.93089">
        <ele>1041.25</ele>
        <time>2022-07-01T13:04:27Z</time>
      </trkpt>
      <trkpt lat="45.65997" lon="2.93045">
        <ele>1043.65</ele>
        <time>2022-07-01T13:04:43Z</time>
      </trkpt>
      <trkpt lat="45.65999" lon="2.93005">
        <ele>1045.57</ele>
        <time>2022-07-01T13:04:56Z</time>
      </trkpt>
      <trkpt lat="45.66002" lon="2.92951">
        <ele>1047.49</ele>
        <time>2022-07-01T13:05:10Z</time>
      </trkpt>
      <trkpt lat="45.65996" lon="2.92899">
        <ele>1048.94</ele>
        <time>2022-07-01T13:05:23Z</time>
      </trkpt>
      <trkpt lat="45.65987" lon="2.92845">
        <ele>1052.3</ele>
        <time>2022-07-01T13:05:38Z</time>
      </trkpt>
      <trkpt lat="45.65988" lon="2.92817">
        <ele>1052.3</ele>
        <time>2022-07-01T13:05:45Z</time>
      </trkpt>
      <trkpt lat="45.65988" lon="2.92787">
        <ele>1049.9</ele>
        <time>2022-07-01T13:05:49Z</time>
      </trkpt>
      <trkpt lat="45.65987" lon="2.92753">
        <ele>1048.45</ele>
        <time>2022-07-01T13:05:54Z</time>
      </trkpt>
      <trkpt lat="45.65981" lon="2.92692">
        <ele>1046.05</ele>
        <time>2022-07-01T13:06:04Z</time>
      </trkpt>
      <trkpt lat="45.65967" lon="2.92644">
        <ele>1042.69</ele>
        <time>2022-07-01T13:06:12Z</time>
      </trkpt>
      <trkpt lat="45.6595" lon="2.92595">
        <ele>1039.8</ele>
        <time>2022-07-01T13:06:22Z</time>
      </trkpt>
      <trkpt lat="45.65934" lon="2.92559">
        <ele>1038.36</ele>
        <time>2022-07-01T13:06:32Z</time>
      </trkpt>
      <trkpt lat="45.65929" lon="2.92525">
        <ele>1036.92</ele>
        <time>2022-07-01T13:06:43Z</time>
      </trkpt>
      <trkpt lat="45.65947" lon="2.92494">
        <ele>1033.07</ele>
        <time>2022-07-01T13:06:53Z</time>
      </trkpt>
      <trkpt lat="45.65954" lon="2.92479">
        <ele>1031.63</ele>
        <time>2022-07-01T13:06:56Z</time>
      </trkpt>
      <trkpt lat="45.65964" lon="2.92459">
        <ele>1029.71</ele>
        <time>2022-07-01T13:07:01Z</time>
      </trkpt>
      <trkpt lat="45.65985" lon="2.92422">
        <ele>1026.34</ele>
        <time>2022-07-01T13:07:11Z</time>
      </trkpt>
      <trkpt lat="45.65991" lon="2.92409">
        <ele>1024.9</ele>
        <time>2022-07-01T13:07:14Z</time>
      </trkpt>
      <trkpt lat="45.66005" lon="2.92379">
        <ele>1021.54</ele>
        <time>2022-07-01T13:07:20Z</time>
      </trkpt>
      <trkpt lat="45.66026" lon="2.92336">
        <ele>1018.65</ele>
        <time>2022-07-01T13:07:28Z</time>
      </trkpt>
      <trkpt lat="45.66051" lon="2.92286">
        <ele>1018.65</ele>
        <time>2022-07-01T13:07:39Z</time>
      </trkpt>
      <trkpt lat="45.66061" lon="2.92286">
        <ele>1019.13</ele>
        <time>2022-07-01T13:07:47Z</time>
      </trkpt>
      <trkpt lat="45.66106" lon="2.92334">
        <ele>1016.73</ele>
        <time>2022-07-01T13:08:07Z</time>
      </trkpt>
      <trkpt lat="45.66139" lon="2.92376">
        <ele>1015.77</ele>
        <time>2022-07-01T13:08:23Z</time>
      </trkpt>
      <trkpt lat="45.66181" lon="2.9245">
        <ele>1016.25</ele>
        <time>2022-07-01T13:08:43Z</time>
      </trkpt>
      <trkpt lat="45.66213" lon="2.9251">
        <ele>1016.25</ele>
        <time>2022-07-01T13:08:59Z</time>
      </trkpt>
      <trkpt lat="45.66251" lon="2.92585">
        <ele>1016.25</ele>
        <time>2022-07-01T13:09:17Z</time>
      </trkpt>
      <trkpt lat="45.66263" lon="2.9261">
        <ele>1016.73</ele>
        <time>2022-07-01T13:09:30Z</time>
      </trkpt>
      <trkpt lat="45.66269" lon="2.9262">
        <ele>1016.73</ele>
        <time>2022-07-01T13:09:47Z</time>
      </trkpt>
      <trkpt lat="45.66291" lon="2.92618">
        <ele>1015.77</ele>
        <time>2022-07-01T13:09:56Z</time>
      </trkpt>
      <trkpt lat="45.66338" lon="2.92554">
        <ele>1013.85</ele>
        <time>2022-07-01T13:10:10Z</time>
      </trkpt>
      <trkpt lat="45.66341" lon="2.92552">
        <ele>1013.85</ele>
        <time>2022-07-01T13:10:11Z</time>
      </trkpt>
      <trkpt lat="45.66351" lon="2.92556">
        <ele>1013.37</ele>
        <time>2022-07-01T13:10:15Z</time>
      </trkpt>
      <trkpt lat="45.66386" lon="2.92598">
        <ele>1013.85</ele>
        <time>2022-07-01T13:10:30Z</time>
      </trkpt>
      <trkpt lat="45.66432" lon="2.92653">
        <ele>1012.41</ele>
        <time>2022-07-01T13:10:48Z</time>
      </trkpt>
      <trkpt lat="45.66458" lon="2.92683">
        <ele>1010.96</ele>
        <time>2022-07-01T13:10:57Z</time>
      </trkpt>
      <trkpt lat="45.66478" lon="2.92707">
        <ele>1010</ele>
        <time>2022-07-01T13:11:03Z</time>
      </trkpt>
      <trkpt lat="45.66546" lon="2.92757">
        <ele>1007.12</ele>
        <time>2022-07-01T13:11:18Z</time>
      </trkpt>
      <trkpt lat="45.6655" lon="2.92761">
        <ele>1007.6</ele>
        <time>2022-07-01T13:11:19Z</time>
      </trkpt>
      <trkpt lat="45.66593" lon="2.92798">
        <ele>1008.56</ele>
        <time>2022-07-01T13:11:32Z</time>
      </trkpt>
      <trkpt lat="45.6664" lon="2.92823">
        <ele>1011.93</ele>
        <time>2022-07-01T13:11:47Z</time>
      </trkpt>
      <trkpt lat="45.66688" lon="2.92841">
        <ele>1014.81</ele>
        <time>2022-07-01T13:12:03Z</time>
      </trkpt>
      <trkpt lat="45.66719" lon="2.92853">
        <ele>1017.69</ele>
        <time>2022-07-01T13:12:16Z</time>
      </trkpt>
      <trkpt lat="45.66751" lon="2.92865">
        <ele>1021.06</ele>
        <time>2022-07-01T13:12:32Z</time>
      </trkpt>
      <trkpt lat="45.66778" lon="2.92876">
        <ele>1024.42</ele>
        <time>2022-07-01T13:12:48Z</time>
      </trkpt>
      <trkpt lat="45.66799" lon="2.92883">
        <ele>1027.79</ele>
        <time>2022-07-01T13:13:01Z</time>
      </trkpt>
      <trkpt lat="45.66824" lon="2.92892">
        <ele>1029.71</ele>
        <time>2022-07-01T13:13:16Z</time>
      </trkpt>
      <trkpt lat="45.6685" lon="2.92908">
        <ele>1032.59</ele>
        <time>2022-07-01T13:13:33Z</time>
      </trkpt>
      <trkpt lat="45.6688" lon="2.92934">
        <ele>1034.52</ele>
        <time>2022-07-01T13:13:50Z</time>
      </trkpt>
      <trkpt lat="45.66913" lon="2.9297">
        <ele>1036.44</ele>
        <time>2022-07-01T13:14:08Z</time>
      </trkpt>
      <trkpt lat="45.66948" lon="2.93005">
        <ele>1037.88</ele>
        <time>2022-07-01T13:14:22Z</time>
      </trkpt>
      <trkpt lat="45.67004" lon="2.93063">
        <ele>1038.84</ele>
        <time>2022-07-01T13:14:42Z</time>
      </trkpt>
      <trkpt lat="45.67053" lon="2.93108">
        <ele>1040.76</ele>
        <time>2022-07-01T13:14:58Z</time>
      </trkpt>
      <trkpt lat="45.671" lon="2.93147">
        <ele>1041.25</ele>
        <time>2022-07-01T13:15:15Z</time>
      </trkpt>
      <trkpt lat="45.67104" lon="2.9315">
        <ele>1040.76</ele>
        <time>2022-07-01T13:15:25Z</time>
      </trkpt>
      <trkpt lat="45.67104" lon="2.93151">
        <ele>1041.25</ele>
        <time>2022-07-01T13:17:15Z</time>
      </trkpt>
      <trkpt lat="45.67105" lon="2.93151">
        <ele>1040.76</ele>
        <time>2022-07-01T13:17:47Z</time>
      </trkpt>
      <trkpt lat="45.67106" lon="2.93151">
        <ele>1042.21</ele>
        <time>2022-07-01T13:20:07Z</time>
      </trkpt>
      <trkpt lat="45.67122" lon="2.93158">
        <ele>1041.73</ele>
        <time>2022-07-01T13:20:54Z</time>
      </trkpt>
      <trkpt lat="45.67125" lon="2.93158">
        <ele>1041.25</ele>
        <time>2022-07-01T13:21:04Z</time>
      </trkpt>
      <trkpt lat="45.67145" lon="2.93169">
        <ele>1039.32</ele>
        <time>2022-07-01T13:21:14Z</time>
      </trkpt>
      <trkpt lat="45.67188" lon="2.93183">
        <ele>1035.96</ele>
        <time>2022-07-01T13:21:25Z</time>
      </trkpt>
      <trkpt lat="45.67216" lon="2.93188">
        <ele>1033.55</ele>
        <time>2022-07-01T13:21:32Z</time>
      </trkpt>
      <trkpt lat="45.67229" lon="2.93191">
        <ele>1032.59</ele>
        <time>2022-07-01T13:21:35Z</time>
      </trkpt>
      <trkpt lat="45.67238" lon="2.93194">
        <ele>1031.15</ele>
        <time>2022-07-01T13:21:37Z</time>
      </trkpt>
      <trkpt lat="45.67253" lon="2.93197">
        <ele>1030.19</ele>
        <time>2022-07-01T13:21:41Z</time>
      </trkpt>
      <trkpt lat="45.6726" lon="2.93199">
        <ele>1029.23</ele>
        <time>2022-07-01T13:21:43Z</time>
      </trkpt>
      <trkpt lat="45.67293" lon="2.93212">
        <ele>1025.86</ele>
        <time>2022-07-01T13:21:51Z</time>
      </trkpt>
      <trkpt lat="45.67307" lon="2.93217">
        <ele>1022.5</ele>
        <time>2022-07-01T13:21:54Z</time>
      </trkpt>
      <trkpt lat="45.67312" lon="2.93218">
        <ele>1022.5</ele>
        <time>2022-07-01T13:21:55Z</time>
      </trkpt>
      <trkpt lat="45.67322" lon="2.9322">
        <ele>1021.54</ele>
        <time>2022-07-01T13:21:57Z</time>
      </trkpt>
      <trkpt lat="45.6733" lon="2.93223">
        <ele>1020.58</ele>
        <time>2022-07-01T13:21:59Z</time>
      </trkpt>
      <trkpt lat="45.67334" lon="2.93225">
        <ele>1020.1</ele>
        <time>2022-07-01T13:22:00Z</time>
      </trkpt>
      <trkpt lat="45.67371" lon="2.93236">
        <ele>1017.69</ele>
        <time>2022-07-01T13:22:09Z</time>
      </trkpt>
      <trkpt lat="45.67392" lon="2.93242">
        <ele>1014.81</ele>
        <time>2022-07-01T13:22:15Z</time>
      </trkpt>
      <trkpt lat="45.67434" lon="2.93257">
        <ele>1011.93</ele>
        <time>2022-07-01T13:22:27Z</time>
      </trkpt>
      <trkpt lat="45.6744" lon="2.9326">
        <ele>1010</ele>
        <time>2022-07-01T13:22:29Z</time>
      </trkpt>
      <trkpt lat="45.67465" lon="2.93271">
        <ele>1008.56</ele>
        <time>2022-07-01T13:22:37Z</time>
      </trkpt>
      <trkpt lat="45.67507" lon="2.93292">
        <ele>1006.16</ele>
        <time>2022-07-01T13:22:52Z</time>
      </trkpt>
      <trkpt lat="45.67525" lon="2.93305">
        <ele>1005.2</ele>
        <time>2022-07-01T13:23:48Z</time>
      </trkpt>
      <trkpt lat="45.67548" lon="2.93321">
        <ele>1003.75</ele>
        <time>2022-07-01T13:23:54Z</time>
      </trkpt>
      <trkpt lat="45.67598" lon="2.93351">
        <ele>1000.87</ele>
        <time>2022-07-01T13:24:06Z</time>
      </trkpt>
      <trkpt lat="45.67619" lon="2.93365">
        <ele>998.95</ele>
        <time>2022-07-01T13:24:12Z</time>
      </trkpt>
      <trkpt lat="45.67652" lon="2.93383">
        <ele>997.02</ele>
        <time>2022-07-01T13:24:22Z</time>
      </trkpt>
      <trkpt lat="45.67659" lon="2.93369">
        <ele>997.02</ele>
        <time>2022-07-01T13:24:28Z</time>
      </trkpt>
      <trkpt lat="45.67654" lon="2.93343">
        <ele>997.51</ele>
        <time>2022-07-01T13:24:43Z</time>
      </trkpt>
      <trkpt lat="45.67646" lon="2.93315">
        <ele>997.99</ele>
        <time>2022-07-01T13:25:00Z</time>
      </trkpt>
      <trkpt lat="45.67616" lon="2.93248">
        <ele>999.43</ele>
        <time>2022-07-01T13:25:17Z</time>
      </trkpt>
      <trkpt lat="45.67583" lon="2.93203">
        <ele>998.95</ele>
        <time>2022-07-01T13:25:30Z</time>
      </trkpt>
      <trkpt lat="45.67542" lon="2.93154">
        <ele>998.47</ele>
        <time>2022-07-01T13:25:44Z</time>
      </trkpt>
      <trkpt lat="45.67532" lon="2.93138">
        <ele>998.47</ele>
        <time>2022-07-01T13:25:48Z</time>
      </trkpt>
      <trkpt lat="45.67527" lon="2.93109">
        <ele>998.47</ele>
        <time>2022-07-01T13:25:53Z</time>
      </trkpt>
      <trkpt lat="45.67533" lon="2.93041">
        <ele>998.95</ele>
        <time>2022-07-01T13:26:04Z</time>
      </trkpt>
      <trkpt lat="45.67537" lon="2.92955">
        <ele>998.47</ele>
        <time>2022-07-01T13:26:18Z</time>
      </trkpt>
      <trkpt lat="45.67549" lon="2.92859">
        <ele>999.43</ele>
        <time>2022-07-01T13:26:34Z</time>
      </trkpt>
      <trkpt lat="45.67552" lon="2.9277">
        <ele>999.91</ele>
        <time>2022-07-01T13:26:49Z</time>
      </trkpt>
      <trkpt lat="45.6755" lon="2.92739">
        <ele>999.43</ele>
        <time>2022-07-01T13:26:54Z</time>
      </trkpt>
      <trkpt lat="45.6753" lon="2.9264">
        <ele>1000.39</ele>
        <time>2022-07-01T13:27:11Z</time>
      </trkpt>
      <trkpt lat="45.67523" lon="2.92602">
        <ele>1000.39</ele>
        <time>2022-07-01T13:27:18Z</time>
      </trkpt>
      <trkpt lat="45.6751" lon="2.92567">
        <ele>999.91</ele>
        <time>2022-07-01T13:27:24Z</time>
      </trkpt>
      <trkpt lat="45.67461" lon="2.92499">
        <ele>998.95</ele>
        <time>2022-07-01T13:27:39Z</time>
      </trkpt>
      <trkpt lat="45.67421" lon="2.92474">
        <ele>998.47</ele>
        <time>2022-07-01T13:27:50Z</time>
      </trkpt>
      <trkpt lat="45.67428" lon="2.92461">
        <ele>997.99</ele>
        <time>2022-07-01T13:27:55Z</time>
      </trkpt>
      <trkpt lat="45.67495" lon="2.92451">
        <ele>996.06</ele>
        <time>2022-07-01T13:28:12Z</time>
      </trkpt>
      <trkpt lat="45.6757" lon="2.92438">
        <ele>994.62</ele>
        <time>2022-07-01T13:28:30Z</time>
      </trkpt>
      <trkpt lat="45.67625" lon="2.92429">
        <ele>993.66</ele>
        <time>2022-07-01T13:28:44Z</time>
      </trkpt>
      <trkpt lat="45.67645" lon="2.92425">
        <ele>993.18</ele>
        <time>2022-07-01T13:28:49Z</time>
      </trkpt>
      <trkpt lat="45.67661" lon="2.92422">
        <ele>993.18</ele>
        <time>2022-07-01T13:28:53Z</time>
      </trkpt>
      <trkpt lat="45.67737" lon="2.9241">
        <ele>992.7</ele>
        <time>2022-07-01T13:29:13Z</time>
      </trkpt>
      <trkpt lat="45.67767" lon="2.92445">
        <ele>991.26</ele>
        <time>2022-07-01T13:29:23Z</time>
      </trkpt>
      <trkpt lat="45.67818" lon="2.92514">
        <ele>989.81</ele>
        <time>2022-07-01T13:29:41Z</time>
      </trkpt>
      <trkpt lat="45.67867" lon="2.92583">
        <ele>987.41</ele>
        <time>2022-07-01T13:29:58Z</time>
      </trkpt>
      <trkpt lat="45.67877" lon="2.92597">
        <ele>985.97</ele>
        <time>2022-07-01T13:30:01Z</time>
      </trkpt>
      <trkpt lat="45.67923" lon="2.92661">
        <ele>983.09</ele>
        <time>2022-07-01T13:30:13Z</time>
      </trkpt>
      <trkpt lat="45.67936" lon="2.92678">
        <ele>981.64</ele>
        <time>2022-07-01T13:30:16Z</time>
      </trkpt>
      <trkpt lat="45.67967" lon="2.9272">
        <ele>979.24</ele>
        <time>2022-07-01T13:30:25Z</time>
      </trkpt>
      <trkpt lat="45.67975" lon="2.92702">
        <ele>978.28</ele>
        <time>2022-07-01T13:30:33Z</time>
      </trkpt>
      <trkpt lat="45.67976" lon="2.92658">
        <ele>980.68</ele>
        <time>2022-07-01T13:30:44Z</time>
      </trkpt>
      <trkpt lat="45.67977" lon="2.92613">
        <ele>981.64</ele>
        <time>2022-07-01T13:30:57Z</time>
      </trkpt>
      <trkpt lat="45.67969" lon="2.92545">
        <ele>979.24</ele>
        <time>2022-07-01T13:31:08Z</time>
      </trkpt>
      <trkpt lat="45.67968" lon="2.92521">
        <ele>977.8</ele>
        <time>2022-07-01T13:31:11Z</time>
      </trkpt>
      <trkpt lat="45.67977" lon="2.92492">
        <ele>977.8</ele>
        <time>2022-07-01T13:31:15Z</time>
      </trkpt>
      <trkpt lat="45.68005" lon="2.92451">
        <ele>981.16</ele>
        <time>2022-07-01T13:31:23Z</time>
      </trkpt>
      <trkpt lat="45.68007" lon="2.92448">
        <ele>981.16</ele>
        <time>2022-07-01T13:31:24Z</time>
      </trkpt>
      <trkpt lat="45.6801" lon="2.92443">
        <ele>982.6</ele>
        <time>2022-07-01T13:31:26Z</time>
      </trkpt>
      <trkpt lat="45.68015" lon="2.92436">
        <ele>983.57</ele>
        <time>2022-07-01T13:31:29Z</time>
      </trkpt>
      <trkpt lat="45.68032" lon="2.92409">
        <ele>986.93</ele>
        <time>2022-07-01T13:31:41Z</time>
      </trkpt>
      <trkpt lat="45.68061" lon="2.9236">
        <ele>987.89</ele>
        <time>2022-07-01T13:31:58Z</time>
      </trkpt>
      <trkpt lat="45.68098" lon="2.92289">
        <ele>989.81</ele>
        <time>2022-07-01T13:32:16Z</time>
      </trkpt>
      <trkpt lat="45.68118" lon="2.92223">
        <ele>990.78</ele>
        <time>2022-07-01T13:32:30Z</time>
      </trkpt>
      <trkpt lat="45.68141" lon="2.92148">
        <ele>991.74</ele>
        <time>2022-07-01T13:32:46Z</time>
      </trkpt>
      <trkpt lat="45.68169" lon="2.92093">
        <ele>993.18</ele>
        <time>2022-07-01T13:33:01Z</time>
      </trkpt>
      <trkpt lat="45.68201" lon="2.92072">
        <ele>992.7</ele>
        <time>2022-07-01T13:33:15Z</time>
      </trkpt>
      <trkpt lat="45.68243" lon="2.92051">
        <ele>992.22</ele>
        <time>2022-07-01T13:33:31Z</time>
      </trkpt>
      <trkpt lat="45.6829" lon="2.92023">
        <ele>991.26</ele>
        <time>2022-07-01T13:33:45Z</time>
      </trkpt>
      <trkpt lat="45.68356" lon="2.91986">
        <ele>989.33</ele>
        <time>2022-07-01T13:34:03Z</time>
      </trkpt>
      <trkpt lat="45.68388" lon="2.91967">
        <ele>988.37</ele>
        <time>2022-07-01T13:34:12Z</time>
      </trkpt>
      <trkpt lat="45.6839" lon="2.91948">
        <ele>987.89</ele>
        <time>2022-07-01T13:34:17Z</time>
      </trkpt>
      <trkpt lat="45.68389" lon="2.91864">
        <ele>987.41</ele>
        <time>2022-07-01T13:34:33Z</time>
      </trkpt>
      <trkpt lat="45.68388" lon="2.91785">
        <ele>988.37</ele>
        <time>2022-07-01T13:34:48Z</time>
      </trkpt>
      <trkpt lat="45.68386" lon="2.91695">
        <ele>990.3</ele>
        <time>2022-07-01T13:35:07Z</time>
      </trkpt>
      <trkpt lat="45.68386" lon="2.9163">
        <ele>991.26</ele>
        <time>2022-07-01T13:35:22Z</time>
      </trkpt>
      <trkpt lat="45.68384" lon="2.91549">
        <ele>992.22</ele>
        <time>2022-07-01T13:35:39Z</time>
      </trkpt>
      <trkpt lat="45.68384" lon="2.9148">
        <ele>991.74</ele>
        <time>2022-07-01T13:35:54Z</time>
      </trkpt>
      <trkpt lat="45.68386" lon="2.9145">
        <ele>991.74</ele>
        <time>2022-07-01T13:36:01Z</time>
      </trkpt>
      <trkpt lat="45.68425" lon="2.91442">
        <ele>990.78</ele>
        <time>2022-07-01T13:36:15Z</time>
      </trkpt>
      <trkpt lat="45.68492" lon="2.91432">
        <ele>987.89</ele>
        <time>2022-07-01T13:36:32Z</time>
      </trkpt>
      <trkpt lat="45.68525" lon="2.91424">
        <ele>986.45</ele>
        <time>2022-07-01T13:36:45Z</time>
      </trkpt>
      <trkpt lat="45.68525" lon="2.91424">
        <ele>986.93</ele>
        <time>2022-07-01T13:36:47Z</time>
      </trkpt>
      <trkpt lat="45.68526" lon="2.9142">
        <ele>986.45</ele>
        <time>2022-07-01T13:36:49Z</time>
      </trkpt>
      <trkpt lat="45.68502" lon="2.91357">
        <ele>986.93</ele>
        <time>2022-07-01T13:37:04Z</time>
      </trkpt>
      <trkpt lat="45.68457" lon="2.91261">
        <ele>985.97</ele>
        <time>2022-07-01T13:37:24Z</time>
      </trkpt>
      <trkpt lat="45.68416" lon="2.91183">
        <ele>984.05</ele>
        <time>2022-07-01T13:37:39Z</time>
      </trkpt>
      <trkpt lat="45.68424" lon="2.91158">
        <ele>983.09</ele>
        <time>2022-07-01T13:37:45Z</time>
      </trkpt>
      <trkpt lat="45.68493" lon="2.91157">
        <ele>983.09</ele>
        <time>2022-07-01T13:38:00Z</time>
      </trkpt>
      <trkpt lat="45.68582" lon="2.91159">
        <ele>982.12</ele>
        <time>2022-07-01T13:38:19Z</time>
      </trkpt>
      <trkpt lat="45.6866" lon="2.9116">
        <ele>980.2</ele>
        <time>2022-07-01T13:38:35Z</time>
      </trkpt>
      <trkpt lat="45.6875" lon="2.91161">
        <ele>977.32</ele>
        <time>2022-07-01T13:38:52Z</time>
      </trkpt>
      <trkpt lat="45.68786" lon="2.91162">
        <ele>975.88</ele>
        <time>2022-07-01T13:38:58Z</time>
      </trkpt>
      <trkpt lat="45.68823" lon="2.91164">
        <ele>973.47</ele>
        <time>2022-07-01T13:39:04Z</time>
      </trkpt>
      <trkpt lat="45.6891" lon="2.91164">
        <ele>972.51</ele>
        <time>2022-07-01T13:39:20Z</time>
      </trkpt>
      <trkpt lat="45.68983" lon="2.91165">
        <ele>971.07</ele>
        <time>2022-07-01T13:39:36Z</time>
      </trkpt>
      <trkpt lat="45.6903" lon="2.91174">
        <ele>971.55</ele>
        <time>2022-07-01T13:39:47Z</time>
      </trkpt>
      <trkpt lat="45.69073" lon="2.91189">
        <ele>970.59</ele>
        <time>2022-07-01T13:39:59Z</time>
      </trkpt>
      <trkpt lat="45.69115" lon="2.91201">
        <ele>971.55</ele>
        <time>2022-07-01T13:40:12Z</time>
      </trkpt>
      <trkpt lat="45.69159" lon="2.91215">
        <ele>972.99</ele>
        <time>2022-07-01T13:40:27Z</time>
      </trkpt>
      <trkpt lat="45.69205" lon="2.9123">
        <ele>972.51</ele>
        <time>2022-07-01T13:40:42Z</time>
      </trkpt>
      <trkpt lat="45.69238" lon="2.9124">
        <ele>972.99</ele>
        <time>2022-07-01T13:40:52Z</time>
      </trkpt>
      <trkpt lat="45.69241" lon="2.91257">
        <ele>973.47</ele>
        <time>2022-07-01T13:40:56Z</time>
      </trkpt>
      <trkpt lat="45.69223" lon="2.91331">
        <ele>972.51</ele>
        <time>2022-07-01T13:41:12Z</time>
      </trkpt>
      <trkpt lat="45.69188" lon="2.91407">
        <ele>971.55</ele>
        <time>2022-07-01T13:41:29Z</time>
      </trkpt>
      <trkpt lat="45.69154" lon="2.91486">
        <ele>969.15</ele>
        <time>2022-07-01T13:41:46Z</time>
      </trkpt>
      <trkpt lat="45.69139" lon="2.91523">
        <ele>966.26</ele>
        <time>2022-07-01T13:41:53Z</time>
      </trkpt>
      <trkpt lat="45.69135" lon="2.91534">
        <ele>965.78</ele>
        <time>2022-07-01T13:41:55Z</time>
      </trkpt>
      <trkpt lat="45.69112" lon="2.91587">
        <ele>965.3</ele>
        <time>2022-07-01T13:42:09Z</time>
      </trkpt>
      <trkpt lat="45.69098" lon="2.91641">
        <ele>965.3</ele>
        <time>2022-07-01T13:42:23Z</time>
      </trkpt>
      <trkpt lat="45.69084" lon="2.917">
        <ele>967.22</ele>
        <time>2022-07-01T13:42:37Z</time>
      </trkpt>
      <trkpt lat="45.69064" lon="2.91778">
        <ele>969.15</ele>
        <time>2022-07-01T13:42:54Z</time>
      </trkpt>
      <trkpt lat="45.69045" lon="2.91851">
        <ele>970.59</ele>
        <time>2022-07-01T13:43:10Z</time>
      </trkpt>
      <trkpt lat="45.69031" lon="2.91913">
        <ele>972.03</ele>
        <time>2022-07-01T13:43:24Z</time>
      </trkpt>
      <trkpt lat="45.69031" lon="2.91992">
        <ele>973.47</ele>
        <time>2022-07-01T13:43:42Z</time>
      </trkpt>
      <trkpt lat="45.69029" lon="2.92049">
        <ele>974.43</ele>
        <time>2022-07-01T13:43:56Z</time>
      </trkpt>
      <trkpt lat="45.69024" lon="2.92129">
        <ele>973.95</ele>
        <time>2022-07-01T13:44:14Z</time>
      </trkpt>
      <trkpt lat="45.69023" lon="2.92212">
        <ele>972.99</ele>
        <time>2022-07-01T13:44:32Z</time>
      </trkpt>
      <trkpt lat="45.69023" lon="2.92277">
        <ele>972.99</ele>
        <time>2022-07-01T13:44:47Z</time>
      </trkpt>
      <trkpt lat="45.69038" lon="2.9232">
        <ele>972.03</ele>
        <time>2022-07-01T13:44:59Z</time>
      </trkpt>
      <trkpt lat="45.69062" lon="2.92364">
        <ele>970.59</ele>
        <time>2022-07-01T13:45:13Z</time>
      </trkpt>
      <trkpt lat="45.6909" lon="2.92411">
        <ele>969.63</ele>
        <time>2022-07-01T13:45:28Z</time>
      </trkpt>
      <trkpt lat="45.69102" lon="2.92423">
        <ele>969.63</ele>
        <time>2022-07-01T13:45:40Z</time>
      </trkpt>
      <trkpt lat="45.6911" lon="2.92433">
        <ele>970.11</ele>
        <time>2022-07-01T13:45:56Z</time>
      </trkpt>
      <trkpt lat="45.69113" lon="2.9244">
        <ele>970.11</ele>
        <time>2022-07-01T13:45:59Z</time>
      </trkpt>
      <trkpt lat="45.69112" lon="2.92454">
        <ele>969.63</ele>
        <time>2022-07-01T13:46:08Z</time>
      </trkpt>
      <trkpt lat="45.69117" lon="2.92461">
        <ele>969.63</ele>
        <time>2022-07-01T13:46:23Z</time>
      </trkpt>
      <trkpt lat="45.69122" lon="2.9247">
        <ele>969.63</ele>
        <time>2022-07-01T13:46:36Z</time>
      </trkpt>
      <trkpt lat="45.69128" lon="2.92484">
        <ele>969.63</ele>
        <time>2022-07-01T13:46:42Z</time>
      </trkpt>
      <trkpt lat="45.69147" lon="2.92526">
        <ele>971.55</ele>
        <time>2022-07-01T13:46:57Z</time>
      </trkpt>
      <trkpt lat="45.69175" lon="2.92583">
        <ele>974.43</ele>
        <time>2022-07-01T13:47:15Z</time>
      </trkpt>
      <trkpt lat="45.6921" lon="2.92658">
        <ele>973.95</ele>
        <time>2022-07-01T13:47:32Z</time>
      </trkpt>
      <trkpt lat="45.69242" lon="2.92721">
        <ele>973.47</ele>
        <time>2022-07-01T13:47:47Z</time>
      </trkpt>
      <trkpt lat="45.6924" lon="2.92756">
        <ele>974.43</ele>
        <time>2022-07-01T13:47:57Z</time>
      </trkpt>
      <trkpt lat="45.69218" lon="2.92815">
        <ele>974.91</ele>
        <time>2022-07-01T13:48:14Z</time>
      </trkpt>
      <trkpt lat="45.69185" lon="2.92896">
        <ele>975.88</ele>
        <time>2022-07-01T13:48:35Z</time>
      </trkpt>
      <trkpt lat="45.6916" lon="2.92961">
        <ele>975.88</ele>
        <time>2022-07-01T13:48:50Z</time>
      </trkpt>
      <trkpt lat="45.69131" lon="2.93027">
        <ele>975.88</ele>
        <time>2022-07-01T13:49:05Z</time>
      </trkpt>
      <trkpt lat="45.691" lon="2.93105">
        <ele>975.88</ele>
        <time>2022-07-01T13:49:24Z</time>
      </trkpt>
      <trkpt lat="45.6908" lon="2.93151">
        <ele>976.36</ele>
        <time>2022-07-01T13:49:37Z</time>
      </trkpt>
      <trkpt lat="45.69069" lon="2.93192">
        <ele>977.32</ele>
        <time>2022-07-01T13:49:52Z</time>
      </trkpt>
      <trkpt lat="45.69073" lon="2.93197">
        <ele>976.84</ele>
        <time>2022-07-01T13:49:56Z</time>
      </trkpt>
      <trkpt lat="45.69098" lon="2.93246">
        <ele>976.84</ele>
        <time>2022-07-01T13:50:11Z</time>
      </trkpt>
      <trkpt lat="45.6913" lon="2.93302">
        <ele>978.28</ele>
        <time>2022-07-01T13:50:27Z</time>
      </trkpt>
      <trkpt lat="45.69158" lon="2.93326">
        <ele>980.2</ele>
        <time>2022-07-01T13:50:39Z</time>
      </trkpt>
      <trkpt lat="45.69174" lon="2.93343">
        <ele>983.09</ele>
        <time>2022-07-01T13:50:49Z</time>
      </trkpt>
      <trkpt lat="45.69176" lon="2.93347">
        <ele>984.05</ele>
        <time>2022-07-01T13:50:51Z</time>
      </trkpt>
      <trkpt lat="45.69178" lon="2.9335">
        <ele>984.53</ele>
        <time>2022-07-01T13:50:53Z</time>
      </trkpt>
      <trkpt lat="45.69183" lon="2.93362">
        <ele>985.97</ele>
        <time>2022-07-01T13:50:58Z</time>
      </trkpt>
      <trkpt lat="45.69185" lon="2.9337">
        <ele>987.41</ele>
        <time>2022-07-01T13:51:01Z</time>
      </trkpt>
      <trkpt lat="45.69189" lon="2.93407">
        <ele>989.81</ele>
        <time>2022-07-01T13:51:13Z</time>
      </trkpt>
      <trkpt lat="45.69194" lon="2.93425">
        <ele>991.26</ele>
        <time>2022-07-01T13:51:22Z</time>
      </trkpt>
      <trkpt lat="45.692" lon="2.93426">
        <ele>992.22</ele>
        <time>2022-07-01T13:53:31Z</time>
      </trkpt>
      <trkpt lat="45.69199" lon="2.93427">
        <ele>992.22</ele>
        <time>2022-07-01T13:53:34Z</time>
      </trkpt>
      <trkpt lat="45.69196" lon="2.93445">
        <ele>993.18</ele>
        <time>2022-07-01T13:53:42Z</time>
      </trkpt>
      <trkpt lat="45.69201" lon="2.9348">
        <ele>994.14</ele>
        <time>2022-07-01T13:53:55Z</time>
      </trkpt>
      <trkpt lat="45.69212" lon="2.93508">
        <ele>995.1</ele>
        <time>2022-07-01T13:54:07Z</time>
      </trkpt>
      <trkpt lat="45.69212" lon="2.93511">
        <ele>995.58</ele>
        <time>2022-07-01T13:54:21Z</time>
      </trkpt>
      <trkpt lat="45.69213" lon="2.93515">
        <ele>995.58</ele>
        <time>2022-07-01T13:54:23Z</time>
      </trkpt>
      <trkpt lat="45.69221" lon="2.9354">
        <ele>996.54</ele>
        <time>2022-07-01T13:54:34Z</time>
      </trkpt>
      <trkpt lat="45.69225" lon="2.93548">
        <ele>997.02</ele>
        <time>2022-07-01T13:54:50Z</time>
      </trkpt>
      <trkpt lat="45.69229" lon="2.93557">
        <ele>997.99</ele>
        <time>2022-07-01T13:55:11Z</time>
      </trkpt>
      <trkpt lat="45.69234" lon="2.9357">
        <ele>997.99</ele>
        <time>2022-07-01T13:55:16Z</time>
      </trkpt>
      <trkpt lat="45.69241" lon="2.93608">
        <ele>999.43</ele>
        <time>2022-07-01T13:55:28Z</time>
      </trkpt>
      <trkpt lat="45.69253" lon="2.93636">
        <ele>1000.87</ele>
        <time>2022-07-01T13:55:39Z</time>
      </trkpt>
      <trkpt lat="45.69261" lon="2.93654">
        <ele>1000.87</ele>
        <time>2022-07-01T13:55:45Z</time>
      </trkpt>
      <trkpt lat="45.6927" lon="2.93683">
        <ele>1000.39</ele>
        <time>2022-07-01T13:55:53Z</time>
      </trkpt>
      <trkpt lat="45.6928" lon="2.93721">
        <ele>1000.39</ele>
        <time>2022-07-01T13:56:03Z</time>
      </trkpt>
      <trkpt lat="45.69301" lon="2.93775">
        <ele>1001.35</ele>
        <time>2022-07-01T13:56:17Z</time>
      </trkpt>
      <trkpt lat="45.69306" lon="2.93787">
        <ele>1002.31</ele>
        <time>2022-07-01T13:56:20Z</time>
      </trkpt>
      <trkpt lat="45.69314" lon="2.93802">
        <ele>1001.35</ele>
        <time>2022-07-01T13:56:24Z</time>
      </trkpt>
      <trkpt lat="45.6932" lon="2.93832">
        <ele>1001.83</ele>
        <time>2022-07-01T13:56:31Z</time>
      </trkpt>
      <trkpt lat="45.69337" lon="2.93889">
        <ele>1001.35</ele>
        <time>2022-07-01T13:56:45Z</time>
      </trkpt>
      <trkpt lat="45.69353" lon="2.93927">
        <ele>1000.39</ele>
        <time>2022-07-01T13:56:55Z</time>
      </trkpt>
      <trkpt lat="45.69363" lon="2.93942">
        <ele>1000.39</ele>
        <time>2022-07-01T13:56:59Z</time>
      </trkpt>
      <trkpt lat="45.69389" lon="2.93983">
        <ele>999.91</ele>
        <time>2022-07-01T13:57:11Z</time>
      </trkpt>
      <trkpt lat="45.69418" lon="2.94025">
        <ele>999.43</ele>
        <time>2022-07-01T13:57:22Z</time>
      </trkpt>
      <trkpt lat="45.6942" lon="2.94027">
        <ele>999.91</ele>
        <time>2022-07-01T13:57:23Z</time>
      </trkpt>
      <trkpt lat="45.6943" lon="2.94043">
        <ele>999.91</ele>
        <time>2022-07-01T13:57:29Z</time>
      </trkpt>
      <trkpt lat="45.69464" lon="2.94097">
        <ele>1000.87</ele>
        <time>2022-07-01T13:57:42Z</time>
      </trkpt>
      <trkpt lat="45.69467" lon="2.94103">
        <ele>1000.39</ele>
        <time>2022-07-01T13:57:55Z</time>
      </trkpt>
      <trkpt lat="45.69471" lon="2.94111">
        <ele>999.91</ele>
        <time>2022-07-01T13:57:59Z</time>
      </trkpt>
      <trkpt lat="45.69489" lon="2.94144">
        <ele>1001.35</ele>
        <time>2022-07-01T13:58:09Z</time>
      </trkpt>
      <trkpt lat="45.69506" lon="2.94178">
        <ele>1002.31</ele>
        <time>2022-07-01T13:58:18Z</time>
      </trkpt>
      <trkpt lat="45.69516" lon="2.94199">
        <ele>1003.75</ele>
        <time>2022-07-01T13:58:24Z</time>
      </trkpt>
      <trkpt lat="45.69534" lon="2.94234">
        <ele>1006.16</ele>
        <time>2022-07-01T13:58:35Z</time>
      </trkpt>
      <trkpt lat="45.69556" lon="2.94277">
        <ele>1006.16</ele>
        <time>2022-07-01T13:58:48Z</time>
      </trkpt>
      <trkpt lat="45.69584" lon="2.94334">
        <ele>1004.23</ele>
        <time>2022-07-01T13:59:02Z</time>
      </trkpt>
      <trkpt lat="45.69619" lon="2.94406">
        <ele>1003.27</ele>
        <time>2022-07-01T13:59:16Z</time>
      </trkpt>
      <trkpt lat="45.69622" lon="2.94411">
        <ele>1002.31</ele>
        <time>2022-07-01T13:59:17Z</time>
      </trkpt>
      <trkpt lat="45.69658" lon="2.94491">
        <ele>1001.35</ele>
        <time>2022-07-01T13:59:33Z</time>
      </trkpt>
      <trkpt lat="45.69693" lon="2.94566">
        <ele>998.47</ele>
        <time>2022-07-01T13:59:49Z</time>
      </trkpt>
      <trkpt lat="45.697" lon="2.94581">
        <ele>998.47</ele>
        <time>2022-07-01T13:59:52Z</time>
      </trkpt>
      <trkpt lat="45.69704" lon="2.94591">
        <ele>997.02</ele>
        <time>2022-07-01T13:59:54Z</time>
      </trkpt>
      <trkpt lat="45.69709" lon="2.94602">
        <ele>997.02</ele>
        <time>2022-07-01T13:59:56Z</time>
      </trkpt>
      <trkpt lat="45.69712" lon="2.94615">
        <ele>995.58</ele>
        <time>2022-07-01T13:59:58Z</time>
      </trkpt>
      <trkpt lat="45.6973" lon="2.94654">
        <ele>994.62</ele>
        <time>2022-07-01T14:00:05Z</time>
      </trkpt>
      <trkpt lat="45.69752" lon="2.94714">
        <ele>993.18</ele>
        <time>2022-07-01T14:00:17Z</time>
      </trkpt>
      <trkpt lat="45.69742" lon="2.94751">
        <ele>993.18</ele>
        <time>2022-07-01T14:00:27Z</time>
      </trkpt>
      <trkpt lat="45.69737" lon="2.94761">
        <ele>992.7</ele>
        <time>2022-07-01T14:00:30Z</time>
      </trkpt>
      <trkpt lat="45.69726" lon="2.94788">
        <ele>992.22</ele>
        <time>2022-07-01T14:00:37Z</time>
      </trkpt>
      <trkpt lat="45.6971" lon="2.94818">
        <ele>991.74</ele>
        <time>2022-07-01T14:00:45Z</time>
      </trkpt>
      <trkpt lat="45.69679" lon="2.94868">
        <ele>991.26</ele>
        <time>2022-07-01T14:00:56Z</time>
      </trkpt>
      <trkpt lat="45.69659" lon="2.94907">
        <ele>989.81</ele>
        <time>2022-07-01T14:01:06Z</time>
      </trkpt>
      <trkpt lat="45.6964" lon="2.94954">
        <ele>988.85</ele>
        <time>2022-07-01T14:01:16Z</time>
      </trkpt>
      <trkpt lat="45.69621" lon="2.9499">
        <ele>988.85</ele>
        <time>2022-07-01T14:01:24Z</time>
      </trkpt>
      <trkpt lat="45.69616" lon="2.95002">
        <ele>989.33</ele>
        <time>2022-07-01T14:01:26Z</time>
      </trkpt>
      <trkpt lat="45.69599" lon="2.95043">
        <ele>986.93</ele>
        <time>2022-07-01T14:01:33Z</time>
      </trkpt>
      <trkpt lat="45.69594" lon="2.95061">
        <ele>985.01</ele>
        <time>2022-07-01T14:01:36Z</time>
      </trkpt>
      <trkpt lat="45.69575" lon="2.95116">
        <ele>983.09</ele>
        <time>2022-07-01T14:01:46Z</time>
      </trkpt>
      <trkpt lat="45.69564" lon="2.95134">
        <ele>981.16</ele>
        <time>2022-07-01T14:01:50Z</time>
      </trkpt>
      <trkpt lat="45.69537" lon="2.95194">
        <ele>978.28</ele>
        <time>2022-07-01T14:02:04Z</time>
      </trkpt>
      <trkpt lat="45.69516" lon="2.95252">
        <ele>975.88</ele>
        <time>2022-07-01T14:02:16Z</time>
      </trkpt>
      <trkpt lat="45.69492" lon="2.95303">
        <ele>973.95</ele>
        <time>2022-07-01T14:02:28Z</time>
      </trkpt>
      <trkpt lat="45.69486" lon="2.95312">
        <ele>973.95</ele>
        <time>2022-07-01T14:02:31Z</time>
      </trkpt>
      <trkpt lat="45.69482" lon="2.95329">
        <ele>972.51</ele>
        <time>2022-07-01T14:02:36Z</time>
      </trkpt>
      <trkpt lat="45.69473" lon="2.95345">
        <ele>972.03</ele>
        <time>2022-07-01T14:02:48Z</time>
      </trkpt>
      <trkpt lat="45.69473" lon="2.95345">
        <ele>972.51</ele>
        <time>2022-07-01T14:03:06Z</time>
      </trkpt>
      <trkpt lat="45.69445" lon="2.95314">
        <ele>971.55</ele>
        <time>2022-07-01T14:03:19Z</time>
      </trkpt>
      <trkpt lat="45.69397" lon="2.95246">
        <ele>970.11</ele>
        <time>2022-07-01T14:03:35Z</time>
      </trkpt>
      <trkpt lat="45.69394" lon="2.95241">
        <ele>970.11</ele>
        <time>2022-07-01T14:03:36Z</time>
      </trkpt>
      <trkpt lat="45.69359" lon="2.95188">
        <ele>970.59</ele>
        <time>2022-07-01T14:03:49Z</time>
      </trkpt>
      <trkpt lat="45.69316" lon="2.95128">
        <ele>971.55</ele>
        <time>2022-07-01T14:04:05Z</time>
      </trkpt>
      <trkpt lat="45.69309" lon="2.95119">
        <ele>971.55</ele>
        <time>2022-07-01T14:04:12Z</time>
      </trkpt>
      <trkpt lat="45.69288" lon="2.95118">
        <ele>969.15</ele>
        <time>2022-07-01T14:04:21Z</time>
      </trkpt>
      <trkpt lat="45.69251" lon="2.95114">
        <ele>967.22</ele>
        <time>2022-07-01T14:04:31Z</time>
      </trkpt>
      <trkpt lat="45.69237" lon="2.95114">
        <ele>966.26</ele>
        <time>2022-07-01T14:04:34Z</time>
      </trkpt>
      <trkpt lat="45.69196" lon="2.95106">
        <ele>963.38</ele>
        <time>2022-07-01T14:04:43Z</time>
      </trkpt>
      <trkpt lat="45.69172" lon="2.95105">
        <ele>962.42</ele>
        <time>2022-07-01T14:04:47Z</time>
      </trkpt>
      <trkpt lat="45.69132" lon="2.95106">
        <ele>961.46</ele>
        <time>2022-07-01T14:04:54Z</time>
      </trkpt>
      <trkpt lat="45.69074" lon="2.95106">
        <ele>960.49</ele>
        <time>2022-07-01T14:05:08Z</time>
      </trkpt>
      <trkpt lat="45.69045" lon="2.95108">
        <ele>959.53</ele>
        <time>2022-07-01T14:05:16Z</time>
      </trkpt>
      <trkpt lat="45.69014" lon="2.95133">
        <ele>958.57</ele>
        <time>2022-07-01T14:05:24Z</time>
      </trkpt>
      <trkpt lat="45.69001" lon="2.9513">
        <ele>958.57</ele>
        <time>2022-07-01T14:05:28Z</time>
      </trkpt>
      <trkpt lat="45.68966" lon="2.95115">
        <ele>959.05</ele>
        <time>2022-07-01T14:05:39Z</time>
      </trkpt>
      <trkpt lat="45.68932" lon="2.95109">
        <ele>959.05</ele>
        <time>2022-07-01T14:05:49Z</time>
      </trkpt>
      <trkpt lat="45.68888" lon="2.95126">
        <ele>958.57</ele>
        <time>2022-07-01T14:05:59Z</time>
      </trkpt>
      <trkpt lat="45.68835" lon="2.95124">
        <ele>957.61</ele>
        <time>2022-07-01T14:06:12Z</time>
      </trkpt>
      <trkpt lat="45.68813" lon="2.95124">
        <ele>956.65</ele>
        <time>2022-07-01T14:06:16Z</time>
      </trkpt>
      <trkpt lat="45.68766" lon="2.95138">
        <ele>957.61</ele>
        <time>2022-07-01T14:06:28Z</time>
      </trkpt>
      <trkpt lat="45.68758" lon="2.95147">
        <ele>956.65</ele>
        <time>2022-07-01T14:06:31Z</time>
      </trkpt>
      <trkpt lat="45.68731" lon="2.95151">
        <ele>955.21</ele>
        <time>2022-07-01T14:06:37Z</time>
      </trkpt>
      <trkpt lat="45.68713" lon="2.9516">
        <ele>954.73</ele>
        <time>2022-07-01T14:06:41Z</time>
      </trkpt>
      <trkpt lat="45.6869" lon="2.95186">
        <ele>954.25</ele>
        <time>2022-07-01T14:06:48Z</time>
      </trkpt>
      <trkpt lat="45.68658" lon="2.95236">
        <ele>954.25</ele>
        <time>2022-07-01T14:07:01Z</time>
      </trkpt>
      <trkpt lat="45.68663" lon="2.95298">
        <ele>954.73</ele>
        <time>2022-07-01T14:07:14Z</time>
      </trkpt>
      <trkpt lat="45.68656" lon="2.95347">
        <ele>954.73</ele>
        <time>2022-07-01T14:07:25Z</time>
      </trkpt>
      <trkpt lat="45.68654" lon="2.95377">
        <ele>954.73</ele>
        <time>2022-07-01T14:07:33Z</time>
      </trkpt>
      <trkpt lat="45.68651" lon="2.95395">
        <ele>954.25</ele>
        <time>2022-07-01T14:07:38Z</time>
      </trkpt>
      <trkpt lat="45.68648" lon="2.95421">
        <ele>954.25</ele>
        <time>2022-07-01T14:07:43Z</time>
      </trkpt>
      <trkpt lat="45.68628" lon="2.95435">
        <ele>954.73</ele>
        <time>2022-07-01T14:07:53Z</time>
      </trkpt>
      <trkpt lat="45.68606" lon="2.95415">
        <ele>956.17</ele>
        <time>2022-07-01T14:08:04Z</time>
      </trkpt>
      <trkpt lat="45.68581" lon="2.95396">
        <ele>958.09</ele>
        <time>2022-07-01T14:08:15Z</time>
      </trkpt>
      <trkpt lat="45.68558" lon="2.95412">
        <ele>960.01</ele>
        <time>2022-07-01T14:08:25Z</time>
      </trkpt>
      <trkpt lat="45.68544" lon="2.95436">
        <ele>962.9</ele>
        <time>2022-07-01T14:08:35Z</time>
      </trkpt>
      <trkpt lat="45.68523" lon="2.95452">
        <ele>964.82</ele>
        <time>2022-07-01T14:08:46Z</time>
      </trkpt>
      <trkpt lat="45.68502" lon="2.95475">
        <ele>966.74</ele>
        <time>2022-07-01T14:08:58Z</time>
      </trkpt>
      <trkpt lat="45.68483" lon="2.95501">
        <ele>967.7</ele>
        <time>2022-07-01T14:09:09Z</time>
      </trkpt>
      <trkpt lat="45.68452" lon="2.95529">
        <ele>968.18</ele>
        <time>2022-07-01T14:09:21Z</time>
      </trkpt>
      <trkpt lat="45.68422" lon="2.95566">
        <ele>968.18</ele>
        <time>2022-07-01T14:09:32Z</time>
      </trkpt>
      <trkpt lat="45.68402" lon="2.95618">
        <ele>966.74</ele>
        <time>2022-07-01T14:09:44Z</time>
      </trkpt>
      <trkpt lat="45.68374" lon="2.95687">
        <ele>965.78</ele>
        <time>2022-07-01T14:09:56Z</time>
      </trkpt>
      <trkpt lat="45.68359" lon="2.95735">
        <ele>964.82</ele>
        <time>2022-07-01T14:10:08Z</time>
      </trkpt>
      <trkpt lat="45.68339" lon="2.95795">
        <ele>962.42</ele>
        <time>2022-07-01T14:10:20Z</time>
      </trkpt>
      <trkpt lat="45.68332" lon="2.95864">
        <ele>962.9</ele>
        <time>2022-07-01T14:10:31Z</time>
      </trkpt>
      <trkpt lat="45.68334" lon="2.95928">
        <ele>963.86</ele>
        <time>2022-07-01T14:10:43Z</time>
      </trkpt>
      <trkpt lat="45.68338" lon="2.96">
        <ele>963.86</ele>
        <time>2022-07-01T14:10:56Z</time>
      </trkpt>
      <trkpt lat="45.68341" lon="2.96034">
        <ele>963.86</ele>
        <time>2022-07-01T14:11:02Z</time>
      </trkpt>
      <trkpt lat="45.68344" lon="2.96105">
        <ele>963.38</ele>
        <time>2022-07-01T14:11:14Z</time>
      </trkpt>
      <trkpt lat="45.68344" lon="2.96137">
        <ele>963.38</ele>
        <time>2022-07-01T14:11:19Z</time>
      </trkpt>
      <trkpt lat="45.68344" lon="2.96149">
        <ele>963.38</ele>
        <time>2022-07-01T14:11:21Z</time>
      </trkpt>
      <trkpt lat="45.68345" lon="2.9619">
        <ele>962.9</ele>
        <time>2022-07-01T14:11:28Z</time>
      </trkpt>
      <trkpt lat="45.68346" lon="2.96267">
        <ele>963.38</ele>
        <time>2022-07-01T14:11:42Z</time>
      </trkpt>
      <trkpt lat="45.68343" lon="2.96329">
        <ele>963.38</ele>
        <time>2022-07-01T14:11:55Z</time>
      </trkpt>
      <trkpt lat="45.68336" lon="2.96336">
        <ele>964.34</ele>
        <time>2022-07-01T14:12:07Z</time>
      </trkpt>
      <trkpt lat="45.68336" lon="2.96336">
        <ele>963.86</ele>
        <time>2022-07-01T14:12:14Z</time>
      </trkpt>
      <trkpt lat="45.68328" lon="2.96339">
        <ele>963.38</ele>
        <time>2022-07-01T14:12:18Z</time>
      </trkpt>
      <trkpt lat="45.68303" lon="2.96398">
        <ele>963.86</ele>
        <time>2022-07-01T14:12:32Z</time>
      </trkpt>
      <trkpt lat="45.68275" lon="2.96458">
        <ele>964.34</ele>
        <time>2022-07-01T14:12:46Z</time>
      </trkpt>
      <trkpt lat="45.68245" lon="2.96521">
        <ele>966.26</ele>
        <time>2022-07-01T14:13:01Z</time>
      </trkpt>
      <trkpt lat="45.68223" lon="2.96592">
        <ele>966.74</ele>
        <time>2022-07-01T14:13:16Z</time>
      </trkpt>
      <trkpt lat="45.68199" lon="2.96658">
        <ele>966.26</ele>
        <time>2022-07-01T14:13:31Z</time>
      </trkpt>
      <trkpt lat="45.68166" lon="2.96683">
        <ele>966.26</ele>
        <time>2022-07-01T14:13:44Z</time>
      </trkpt>
      <trkpt lat="45.68165" lon="2.96683">
        <ele>966.26</ele>
        <time>2022-07-01T14:14:17Z</time>
      </trkpt>
      <trkpt lat="45.68159" lon="2.96688">
        <ele>965.3</ele>
        <time>2022-07-01T14:14:55Z</time>
      </trkpt>
      <trkpt lat="45.68113" lon="2.96713">
        <ele>963.38</ele>
        <time>2022-07-01T14:15:06Z</time>
      </trkpt>
      <trkpt lat="45.68043" lon="2.96755">
        <ele>960.49</ele>
        <time>2022-07-01T14:15:18Z</time>
      </trkpt>
      <trkpt lat="45.67995" lon="2.96805">
        <ele>957.13</ele>
        <time>2022-07-01T14:15:28Z</time>
      </trkpt>
      <trkpt lat="45.67993" lon="2.9681">
        <ele>957.13</ele>
        <time>2022-07-01T14:15:29Z</time>
      </trkpt>
      <trkpt lat="45.67996" lon="2.96821">
        <ele>955.21</ele>
        <time>2022-07-01T14:15:33Z</time>
      </trkpt>
      <trkpt lat="45.68005" lon="2.96824">
        <ele>953.77</ele>
        <time>2022-07-01T14:15:36Z</time>
      </trkpt>
      <trkpt lat="45.68017" lon="2.96827">
        <ele>952.8</ele>
        <time>2022-07-01T14:15:39Z</time>
      </trkpt>
      <trkpt lat="45.68038" lon="2.96834">
        <ele>951.36</ele>
        <time>2022-07-01T14:15:44Z</time>
      </trkpt>
      <trkpt lat="45.68088" lon="2.96857">
        <ele>947.52</ele>
        <time>2022-07-01T14:15:54Z</time>
      </trkpt>
      <trkpt lat="45.68116" lon="2.96865">
        <ele>946.56</ele>
        <time>2022-07-01T14:15:59Z</time>
      </trkpt>
      <trkpt lat="45.68164" lon="2.9689">
        <ele>945.59</ele>
        <time>2022-07-01T14:16:10Z</time>
      </trkpt>
      <trkpt lat="45.68191" lon="2.96912">
        <ele>943.67</ele>
        <time>2022-07-01T14:16:20Z</time>
      </trkpt>
      <trkpt lat="45.68203" lon="2.96918">
        <ele>943.19</ele>
        <time>2022-07-01T14:16:24Z</time>
      </trkpt>
      <trkpt lat="45.68234" lon="2.96953">
        <ele>940.31</ele>
        <time>2022-07-01T14:16:34Z</time>
      </trkpt>
      <trkpt lat="45.68253" lon="2.96985">
        <ele>937.42</ele>
        <time>2022-07-01T14:16:40Z</time>
      </trkpt>
      <trkpt lat="45.68278" lon="2.9701">
        <ele>935.5</ele>
        <time>2022-07-01T14:16:48Z</time>
      </trkpt>
      <trkpt lat="45.68285" lon="2.97023">
        <ele>934.06</ele>
        <time>2022-07-01T14:16:51Z</time>
      </trkpt>
      <trkpt lat="45.68298" lon="2.97038">
        <ele>931.17</ele>
        <time>2022-07-01T14:16:55Z</time>
      </trkpt>
      <trkpt lat="45.68313" lon="2.9705">
        <ele>929.73</ele>
        <time>2022-07-01T14:16:59Z</time>
      </trkpt>
      <trkpt lat="45.68337" lon="2.97075">
        <ele>925.41</ele>
        <time>2022-07-01T14:17:05Z</time>
      </trkpt>
      <trkpt lat="45.68346" lon="2.97084">
        <ele>924.45</ele>
        <time>2022-07-01T14:17:07Z</time>
      </trkpt>
      <trkpt lat="45.68364" lon="2.97099">
        <ele>922.04</ele>
        <time>2022-07-01T14:17:11Z</time>
      </trkpt>
      <trkpt lat="45.68372" lon="2.97107">
        <ele>921.56</ele>
        <time>2022-07-01T14:17:13Z</time>
      </trkpt>
      <trkpt lat="45.68403" lon="2.97131">
        <ele>919.16</ele>
        <time>2022-07-01T14:17:19Z</time>
      </trkpt>
      <trkpt lat="45.68425" lon="2.97146">
        <ele>917.24</ele>
        <time>2022-07-01T14:17:23Z</time>
      </trkpt>
      <trkpt lat="45.68446" lon="2.97164">
        <ele>916.27</ele>
        <time>2022-07-01T14:17:27Z</time>
      </trkpt>
      <trkpt lat="45.68485" lon="2.97218">
        <ele>914.35</ele>
        <time>2022-07-01T14:17:40Z</time>
      </trkpt>
      <trkpt lat="45.68494" lon="2.97234">
        <ele>914.35</ele>
        <time>2022-07-01T14:17:51Z</time>
      </trkpt>
      <trkpt lat="45.6849" lon="2.97257">
        <ele>914.83</ele>
        <time>2022-07-01T14:18:18Z</time>
      </trkpt>
      <trkpt lat="45.68486" lon="2.9726">
        <ele>914.83</ele>
        <time>2022-07-01T14:18:20Z</time>
      </trkpt>
      <trkpt lat="45.68448" lon="2.97292">
        <ele>914.35</ele>
        <time>2022-07-01T14:18:34Z</time>
      </trkpt>
      <trkpt lat="45.68434" lon="2.97302">
        <ele>913.39</ele>
        <time>2022-07-01T14:18:38Z</time>
      </trkpt>
      <trkpt lat="45.684" lon="2.97348">
        <ele>911.47</ele>
        <time>2022-07-01T14:18:50Z</time>
      </trkpt>
      <trkpt lat="45.68398" lon="2.97401">
        <ele>911.47</ele>
        <time>2022-07-01T14:19:00Z</time>
      </trkpt>
      <trkpt lat="45.68398" lon="2.97408">
        <ele>911.47</ele>
        <time>2022-07-01T14:19:01Z</time>
      </trkpt>
      <trkpt lat="45.68385" lon="2.97434">
        <ele>909.06</ele>
        <time>2022-07-01T14:19:07Z</time>
      </trkpt>
      <trkpt lat="45.68352" lon="2.97439">
        <ele>905.22</ele>
        <time>2022-07-01T14:19:15Z</time>
      </trkpt>
      <trkpt lat="45.68344" lon="2.97439">
        <ele>904.74</ele>
        <time>2022-07-01T14:19:17Z</time>
      </trkpt>
      <trkpt lat="45.68327" lon="2.97439">
        <ele>902.82</ele>
        <time>2022-07-01T14:19:21Z</time>
      </trkpt>
      <trkpt lat="45.68307" lon="2.97436">
        <ele>901.37</ele>
        <time>2022-07-01T14:19:26Z</time>
      </trkpt>
      <trkpt lat="45.6829" lon="2.9743">
        <ele>900.41</ele>
        <time>2022-07-01T14:19:30Z</time>
      </trkpt>
      <trkpt lat="45.68281" lon="2.97427">
        <ele>899.93</ele>
        <time>2022-07-01T14:19:32Z</time>
      </trkpt>
      <trkpt lat="45.68268" lon="2.97427">
        <ele>899.45</ele>
        <time>2022-07-01T14:19:35Z</time>
      </trkpt>
      <trkpt lat="45.68236" lon="2.97434">
        <ele>898.49</ele>
        <time>2022-07-01T14:19:43Z</time>
      </trkpt>
      <trkpt lat="45.68218" lon="2.97447">
        <ele>898.01</ele>
        <time>2022-07-01T14:19:48Z</time>
      </trkpt>
      <trkpt lat="45.68212" lon="2.97454">
        <ele>897.53</ele>
        <time>2022-07-01T14:19:50Z</time>
      </trkpt>
      <trkpt lat="45.68198" lon="2.97473">
        <ele>897.53</ele>
        <time>2022-07-01T14:19:55Z</time>
      </trkpt>
      <trkpt lat="45.68165" lon="2.97514">
        <ele>898.49</ele>
        <time>2022-07-01T14:20:09Z</time>
      </trkpt>
      <trkpt lat="45.68148" lon="2.97553">
        <ele>900.41</ele>
        <time>2022-07-01T14:20:23Z</time>
      </trkpt>
      <trkpt lat="45.68141" lon="2.97558">
        <ele>900.89</ele>
        <time>2022-07-01T14:20:26Z</time>
      </trkpt>
      <trkpt lat="45.68111" lon="2.97564">
        <ele>904.26</ele>
        <time>2022-07-01T14:20:41Z</time>
      </trkpt>
      <trkpt lat="45.68088" lon="2.97568">
        <ele>907.14</ele>
        <time>2022-07-01T14:20:53Z</time>
      </trkpt>
      <trkpt lat="45.68068" lon="2.97569">
        <ele>910.51</ele>
        <time>2022-07-01T14:21:04Z</time>
      </trkpt>
      <trkpt lat="45.68046" lon="2.97579">
        <ele>912.91</ele>
        <time>2022-07-01T14:21:15Z</time>
      </trkpt>
      <trkpt lat="45.68014" lon="2.97595">
        <ele>915.31</ele>
        <time>2022-07-01T14:21:31Z</time>
      </trkpt>
      <trkpt lat="45.67994" lon="2.97608">
        <ele>916.75</ele>
        <time>2022-07-01T14:21:45Z</time>
      </trkpt>
      <trkpt lat="45.67993" lon="2.97611">
        <ele>916.75</ele>
        <time>2022-07-01T14:22:08Z</time>
      </trkpt>
      <trkpt lat="45.67993" lon="2.97612">
        <ele>916.75</ele>
        <time>2022-07-01T14:22:22Z</time>
      </trkpt>
      <trkpt lat="45.68001" lon="2.97621">
        <ele>916.27</ele>
        <time>2022-07-01T14:22:28Z</time>
      </trkpt>
      <trkpt lat="45.68033" lon="2.9765">
        <ele>914.83</ele>
        <time>2022-07-01T14:22:43Z</time>
      </trkpt>
      <trkpt lat="45.68054" lon="2.97679">
        <ele>913.87</ele>
        <time>2022-07-01T14:22:51Z</time>
      </trkpt>
      <trkpt lat="45.68062" lon="2.977">
        <ele>913.39</ele>
        <time>2022-07-01T14:22:55Z</time>
      </trkpt>
      <trkpt lat="45.68072" lon="2.9772">
        <ele>911.95</ele>
        <time>2022-07-01T14:22:59Z</time>
      </trkpt>
      <trkpt lat="45.68083" lon="2.97748">
        <ele>910.51</ele>
        <time>2022-07-01T14:23:04Z</time>
      </trkpt>
      <trkpt lat="45.68094" lon="2.97784">
        <ele>909.06</ele>
        <time>2022-07-01T14:23:10Z</time>
      </trkpt>
      <trkpt lat="45.68108" lon="2.97842">
        <ele>908.58</ele>
        <time>2022-07-01T14:23:22Z</time>
      </trkpt>
      <trkpt lat="45.68107" lon="2.97844">
        <ele>908.1</ele>
        <time>2022-07-01T14:23:23Z</time>
      </trkpt>
      <trkpt lat="45.68096" lon="2.9785">
        <ele>908.1</ele>
        <time>2022-07-01T14:23:28Z</time>
      </trkpt>
      <trkpt lat="45.6808" lon="2.97878">
        <ele>904.74</ele>
        <time>2022-07-01T14:23:36Z</time>
      </trkpt>
      <trkpt lat="45.68045" lon="2.97925">
        <ele>902.33</ele>
        <time>2022-07-01T14:23:48Z</time>
      </trkpt>
      <trkpt lat="45.68026" lon="2.97957">
        <ele>899.93</ele>
        <time>2022-07-01T14:23:58Z</time>
      </trkpt>
      <trkpt lat="45.68016" lon="2.97992">
        <ele>896.57</ele>
        <time>2022-07-01T14:24:07Z</time>
      </trkpt>
      <trkpt lat="45.67998" lon="2.98035">
        <ele>893.2</ele>
        <time>2022-07-01T14:24:17Z</time>
      </trkpt>
      <trkpt lat="45.6798" lon="2.98068">
        <ele>894.16</ele>
        <time>2022-07-01T14:24:27Z</time>
      </trkpt>
      <trkpt lat="45.67978" lon="2.9807">
        <ele>894.64</ele>
        <time>2022-07-01T14:24:28Z</time>
      </trkpt>
      <trkpt lat="45.67953" lon="2.9809">
        <ele>893.68</ele>
        <time>2022-07-01T14:24:40Z</time>
      </trkpt>
      <trkpt lat="45.67948" lon="2.98094">
        <ele>893.2</ele>
        <time>2022-07-01T14:24:58Z</time>
      </trkpt>
      <trkpt lat="45.67926" lon="2.98111">
        <ele>891.76</ele>
        <time>2022-07-01T14:25:20Z</time>
      </trkpt>
      <trkpt lat="45.67918" lon="2.98114">
        <ele>890.32</ele>
        <time>2022-07-01T14:25:23Z</time>
      </trkpt>
      <trkpt lat="45.67905" lon="2.98112">
        <ele>888.4</ele>
        <time>2022-07-01T14:25:26Z</time>
      </trkpt>
      <trkpt lat="45.67883" lon="2.98111">
        <ele>887.43</ele>
        <time>2022-07-01T14:25:30Z</time>
      </trkpt>
      <trkpt lat="45.67869" lon="2.98117">
        <ele>887.91</ele>
        <time>2022-07-01T14:25:33Z</time>
      </trkpt>
      <trkpt lat="45.67833" lon="2.98129">
        <ele>886.47</ele>
        <time>2022-07-01T14:25:42Z</time>
      </trkpt>
      <trkpt lat="45.67807" lon="2.98137">
        <ele>885.03</ele>
        <time>2022-07-01T14:25:48Z</time>
      </trkpt>
      <trkpt lat="45.67776" lon="2.98147">
        <ele>885.99</ele>
        <time>2022-07-01T14:25:59Z</time>
      </trkpt>
      <trkpt lat="45.67774" lon="2.98148">
        <ele>885.99</ele>
        <time>2022-07-01T14:26:00Z</time>
      </trkpt>
      <trkpt lat="45.67736" lon="2.9816">
        <ele>886.95</ele>
        <time>2022-07-01T14:26:16Z</time>
      </trkpt>
      <trkpt lat="45.67706" lon="2.98167">
        <ele>887.43</ele>
        <time>2022-07-01T14:26:28Z</time>
      </trkpt>
      <trkpt lat="45.67674" lon="2.98181">
        <ele>886.47</ele>
        <time>2022-07-01T14:26:40Z</time>
      </trkpt>
      <trkpt lat="45.67647" lon="2.98195">
        <ele>885.99</ele>
        <time>2022-07-01T14:26:50Z</time>
      </trkpt>
      <trkpt lat="45.6764" lon="2.98199">
        <ele>885.51</ele>
        <time>2022-07-01T14:26:52Z</time>
      </trkpt>
      <trkpt lat="45.67624" lon="2.98204">
        <ele>884.07</ele>
        <time>2022-07-01T14:26:55Z</time>
      </trkpt>
      <trkpt lat="45.67587" lon="2.98208">
        <ele>885.51</ele>
        <time>2022-07-01T14:27:05Z</time>
      </trkpt>
      <trkpt lat="45.67547" lon="2.98201">
        <ele>888.4</ele>
        <time>2022-07-01T14:27:20Z</time>
      </trkpt>
      <trkpt lat="45.67523" lon="2.98191">
        <ele>891.76</ele>
        <time>2022-07-01T14:27:31Z</time>
      </trkpt>
      <trkpt lat="45.67495" lon="2.98182">
        <ele>895.12</ele>
        <time>2022-07-01T14:27:45Z</time>
      </trkpt>
      <trkpt lat="45.6746" lon="2.9817">
        <ele>896.09</ele>
        <time>2022-07-01T14:27:59Z</time>
      </trkpt>
      <trkpt lat="45.6741" lon="2.98151">
        <ele>897.05</ele>
        <time>2022-07-01T14:28:14Z</time>
      </trkpt>
      <trkpt lat="45.67363" lon="2.98155">
        <ele>897.53</ele>
        <time>2022-07-01T14:28:27Z</time>
      </trkpt>
      <trkpt lat="45.6732" lon="2.98164">
        <ele>897.05</ele>
        <time>2022-07-01T14:28:39Z</time>
      </trkpt>
      <trkpt lat="45.67268" lon="2.98161">
        <ele>894.16</ele>
        <time>2022-07-01T14:28:52Z</time>
      </trkpt>
      <trkpt lat="45.67256" lon="2.98159">
        <ele>894.16</ele>
        <time>2022-07-01T14:28:55Z</time>
      </trkpt>
      <trkpt lat="45.67224" lon="2.98154">
        <ele>893.2</ele>
        <time>2022-07-01T14:29:02Z</time>
      </trkpt>
      <trkpt lat="45.67173" lon="2.98134">
        <ele>890.32</ele>
        <time>2022-07-01T14:29:16Z</time>
      </trkpt>
      <trkpt lat="45.67146" lon="2.98108">
        <ele>888.88</ele>
        <time>2022-07-01T14:29:27Z</time>
      </trkpt>
      <trkpt lat="45.67138" lon="2.98105">
        <ele>888.4</ele>
        <time>2022-07-01T14:29:31Z</time>
      </trkpt>
      <trkpt lat="45.67104" lon="2.98111">
        <ele>887.43</ele>
        <time>2022-07-01T14:29:44Z</time>
      </trkpt>
      <trkpt lat="45.67085" lon="2.98113">
        <ele>886.95</ele>
        <time>2022-07-01T14:29:50Z</time>
      </trkpt>
      <trkpt lat="45.67073" lon="2.98106">
        <ele>885.51</ele>
        <time>2022-07-01T14:29:53Z</time>
      </trkpt>
      <trkpt lat="45.67068" lon="2.98104">
        <ele>885.51</ele>
        <time>2022-07-01T14:29:54Z</time>
      </trkpt>
      <trkpt lat="45.67029" lon="2.98125">
        <ele>885.03</ele>
        <time>2022-07-01T14:30:03Z</time>
      </trkpt>
      <trkpt lat="45.67024" lon="2.98152">
        <ele>884.07</ele>
        <time>2022-07-01T14:30:08Z</time>
      </trkpt>
      <trkpt lat="45.67004" lon="2.98186">
        <ele>880.71</ele>
        <time>2022-07-01T14:30:14Z</time>
      </trkpt>
      <trkpt lat="45.66996" lon="2.98198">
        <ele>879.26</ele>
        <time>2022-07-01T14:30:16Z</time>
      </trkpt>
      <trkpt lat="45.66989" lon="2.98209">
        <ele>878.78</ele>
        <time>2022-07-01T14:30:18Z</time>
      </trkpt>
      <trkpt lat="45.66954" lon="2.98239">
        <ele>874.94</ele>
        <time>2022-07-01T14:30:26Z</time>
      </trkpt>
      <trkpt lat="45.66936" lon="2.98258">
        <ele>873.98</ele>
        <time>2022-07-01T14:30:30Z</time>
      </trkpt>
      <trkpt lat="45.66914" lon="2.98289">
        <ele>873.01</ele>
        <time>2022-07-01T14:30:35Z</time>
      </trkpt>
      <trkpt lat="45.66903" lon="2.98324">
        <ele>872.53</ele>
        <time>2022-07-01T14:30:40Z</time>
      </trkpt>
      <trkpt lat="45.66925" lon="2.98454">
        <ele>866.77</ele>
        <time>2022-07-01T14:33:05Z</time>
      </trkpt>
      <trkpt lat="45.66928" lon="2.98456">
        <ele>866.77</ele>
        <time>2022-07-01T14:33:07Z</time>
      </trkpt>
      <trkpt lat="45.66946" lon="2.98481">
        <ele>865.8</ele>
        <time>2022-07-01T14:33:15Z</time>
      </trkpt>
      <trkpt lat="45.66979" lon="2.98531">
        <ele>863.88</ele>
        <time>2022-07-01T14:33:26Z</time>
      </trkpt>
      <trkpt lat="45.66991" lon="2.98563">
        <ele>862.44</ele>
        <time>2022-07-01T14:33:32Z</time>
      </trkpt>
      <trkpt lat="45.66996" lon="2.9861">
        <ele>860.52</ele>
        <time>2022-07-01T14:33:40Z</time>
      </trkpt>
      <trkpt lat="45.66996" lon="2.98631">
        <ele>859.08</ele>
        <time>2022-07-01T14:33:43Z</time>
      </trkpt>
      <trkpt lat="45.66996" lon="2.98638">
        <ele>858.59</ele>
        <time>2022-07-01T14:33:44Z</time>
      </trkpt>
      <trkpt lat="45.66994" lon="2.9865">
        <ele>857.63</ele>
        <time>2022-07-01T14:33:46Z</time>
      </trkpt>
      <trkpt lat="45.66992" lon="2.98669">
        <ele>857.15</ele>
        <time>2022-07-01T14:33:49Z</time>
      </trkpt>
      <trkpt lat="45.66993" lon="2.98688">
        <ele>855.23</ele>
        <time>2022-07-01T14:33:52Z</time>
      </trkpt>
      <trkpt lat="45.67002" lon="2.98714">
        <ele>852.35</ele>
        <time>2022-07-01T14:33:56Z</time>
      </trkpt>
      <trkpt lat="45.67005" lon="2.98726">
        <ele>851.38</ele>
        <time>2022-07-01T14:33:58Z</time>
      </trkpt>
      <trkpt lat="45.67008" lon="2.98745">
        <ele>848.98</ele>
        <time>2022-07-01T14:34:01Z</time>
      </trkpt>
      <trkpt lat="45.67009" lon="2.98751">
        <ele>848.02</ele>
        <time>2022-07-01T14:34:02Z</time>
      </trkpt>
      <trkpt lat="45.67011" lon="2.98762">
        <ele>847.06</ele>
        <time>2022-07-01T14:34:04Z</time>
      </trkpt>
      <trkpt lat="45.67012" lon="2.98799">
        <ele>844.66</ele>
        <time>2022-07-01T14:34:10Z</time>
      </trkpt>
      <trkpt lat="45.67012" lon="2.98882">
        <ele>845.14</ele>
        <time>2022-07-01T14:34:26Z</time>
      </trkpt>
      <trkpt lat="45.67013" lon="2.98896">
        <ele>845.14</ele>
        <time>2022-07-01T14:34:38Z</time>
      </trkpt>
      <trkpt lat="45.67014" lon="2.98897">
        <ele>845.14</ele>
        <time>2022-07-01T14:35:19Z</time>
      </trkpt>
      <trkpt lat="45.67014" lon="2.98897">
        <ele>845.62</ele>
        <time>2022-07-01T14:37:29Z</time>
      </trkpt>
      <trkpt lat="45.67014" lon="2.98897">
        <ele>845.14</ele>
        <time>2022-07-01T14:38:58Z</time>
      </trkpt>
      <trkpt lat="45.67014" lon="2.98897">
        <ele>842.73</ele>
        <time>2022-07-01T16:09:55Z</time>
      </trkpt>
      <trkpt lat="45.67014" lon="2.98897">
        <ele>765.83</ele>
        <time>2022-07-01T16:09:57Z</time>
      </trkpt>
      <trkpt lat="45.67014" lon="2.98897">
        <ele>767.27</ele>
        <time>2022-07-01T16:10:01Z</time>
      </trkpt>
    </trkseg>
  </trk>
</gpx>